Darstellungsparameter: Aktuell verwendete Einstellungen:
Skalierung der Graphiken ... ?
xyx+y,   Skalierungsfaktor:      Skalierung: Modus: x, Faktor: 1
Darstellungszeitraum ... ?
Vom - - bis: - -   Zeitraum: 09.01.2011 - 22.01.2011
Min/Max/Avg-Anzeige ... ?
Zeige MMA aktuell
Zeige MMA Monat
Zeige MMA alles
Zeige --A aktuell
Zeige --A Monat
Zeige --A alles
Keine MMA-Anzeige
MMA:
Average (ber die Originaldaten)
MMA-Basis: 09.01.2011 - 22.01.2011
Quicknavigation für Darstellung... ?
Tage:      1T, 2T, 3T, 5T -1T -2T -3T -5T +1T +2T +3T +5T
Wochen: 1W, 2W, 3W -1W -2W -3W +1W +2W +3W
Monate: 1M, 3M, 6M -1M -3M -6M +1M +3M +6M
Jahre:    1J, 3J, 5J, 10J -1J -3J -5J -10J +1J +3J +5J +10J
Nutze für die Darstellung ... ?
Originaldaten oder Mittelwerte auf ...
Stundenbasis Tagesbasis Wochenbasis
Monatsbasis Jahresbasis      Datenbasis: Original-Daten
Darstellen als:
Statistik (Auto) Statistik J:M      Darstellung:
Zur Graphik,    zurück zur Übersicht aller Sensoren.
 
Tabellarische Datenbersicht: ?
 
Sensor: Nr:Datum:Temp:Abs-Feuchte:Windchill:Wind:
Aussen-T/F 1 09-01-2011 00:11:03 9.8 C 7.42 g/m*3 9.8 C 0 km/h
2 09-01-2011 00:23:04 9.7 C 7.56 g/m*3 9.7 C 0 km/h
3 09-01-2011 00:35:04 9.6 C 7.69 g/m*3 9.6 C 0 km/h
4 09-01-2011 00:47:04 9.6 C 7.79 g/m*3 9.6 C 0 km/h
5 09-01-2011 00:59:04 9.5 C 7.83 g/m*3 9.5 C 0 km/h
6 09-01-2011 01:11:04 9.5 C 7.92 g/m*3 9.5 C 0 km/h
7 09-01-2011 01:23:04 9.7 C 8.02 g/m*3 9.7 C 0 km/h
8 09-01-2011 01:35:04 9.6 C 7.97 g/m*3 9.6 C 0 km/h
9 09-01-2011 01:47:04 9.7 C 8.02 g/m*3 9.7 C 0 km/h
10 09-01-2011 01:59:04 9.6 C 7.97 g/m*3 9.6 C 0 km/h
11 09-01-2011 02:11:04 9.8 C 8.07 g/m*3 9.8 C 0 km/h
12 09-01-2011 02:23:04 10 C 7.99 g/m*3 10 C 0 km/h
13 09-01-2011 02:35:04 9.8 C 7.98 g/m*3 9.8 C 0 km/h
14 09-01-2011 02:47:04 9.7 C 7.84 g/m*3 9.7 C 0 km/h
15 09-01-2011 02:59:04 9.6 C 7.79 g/m*3 9.6 C 0 km/h
16 09-01-2011 03:11:04 9.5 C 7.83 g/m*3 9.5 C 0 km/h
17 09-01-2011 03:23:04 9.4 C 7.78 g/m*3 9.4 C 0 km/h
18 09-01-2011 03:35:04 9.2 C 7.68 g/m*3 9.2 C 0 km/h
19 09-01-2011 03:47:04 9.2 C 7.77 g/m*3 9.2 C 0 km/h
20 09-01-2011 03:59:04 9.3 C 7.82 g/m*3 9.3 C 0 km/h
21 09-01-2011 04:11:04 9.7 C 7.93 g/m*3 9.7 C 0 km/h
22 09-01-2011 04:23:05 10.8 C 7.91 g/m*3 10.8 C 0 km/h
23 09-01-2011 04:35:05 11 C 7.51 g/m*3 11 C 0 km/h
24 09-01-2011 04:47:05 11.5 C 7.23 g/m*3 11.5 C 0 km/h
25 09-01-2011 04:59:05 11.6 C 7.28 g/m*3 11.6 C 0 km/h
Sensor: Nr:Datum:Temp:Abs-Feuchte:Windchill:Wind:
Aussen-T/F 26 09-01-2011 05:11:05 11.8 C 7.26 g/m*3 11.8 C 0 km/h
27 09-01-2011 05:23:05 11.5 C 7.23 g/m*3 11.5 C 0 km/h
28 09-01-2011 05:35:05 11.7 C 7.22 g/m*3 11.7 C 0 km/h
29 09-01-2011 05:47:05 11.1 C 7.15 g/m*3 11.1 C 0 km/h
30 09-01-2011 05:59:05 9.3 C 6.65 g/m*3 9.3 C 0 km/h
31 09-01-2011 06:11:05 8 C 6.45 g/m*3 8 C 0 km/h
32 09-01-2011 06:23:05 7.5 C 6.48 g/m*3 7.5 C 0 km/h
33 09-01-2011 06:35:05 7.2 C 6.52 g/m*3 7.2 C 0 km/h
34 09-01-2011 06:47:05 7 C 6.59 g/m*3 7 C 0 km/h
35 09-01-2011 06:59:05 6.8 C 6.65 g/m*3 6.8 C 0 km/h
36 09-01-2011 07:11:05 6.6 C 6.57 g/m*3 6.6 C 0 km/h
37 09-01-2011 07:23:05 6.4 C 6.48 g/m*3 6.4 C 0 km/h
38 09-01-2011 07:35:05 6.2 C 6.4 g/m*3 6.2 C 0 km/h
39 09-01-2011 07:47:05 5.8 C 6.3 g/m*3 5.8 C 0 km/h
40 09-01-2011 07:59:05 5.6 C 6.22 g/m*3 5.6 C 0 km/h
41 09-01-2011 08:11:05 5.5 C 6.18 g/m*3 5.5 C 0 km/h
42 09-01-2011 08:23:05 5.3 C 6.1 g/m*3 5.3 C 0 km/h
43 09-01-2011 08:35:06 5.3 C 6.1 g/m*3 5.3 C 0 km/h
44 09-01-2011 08:47:02 5 C 5.98 g/m*3 5 C 0 km/h
45 09-01-2011 08:59:03 4.7 C 5.86 g/m*3 4.7 C 0 km/h
46 09-01-2011 09:11:02 4.3 C 5.64 g/m*3 4.3 C 0 km/h
47 09-01-2011 09:23:02 4.3 C 5.58 g/m*3 4.3 C 0 km/h
48 09-01-2011 09:35:03 4 C 5.47 g/m*3 4 C 0 km/h
49 09-01-2011 09:47:01 3.8 C 5.46 g/m*3 3.8 C 0 km/h
50 09-01-2011 09:59:01 3.5 C 5.35 g/m*3 3.5 C 0 km/h
Sensor: Nr:Datum:Temp:Abs-Feuchte:Windchill:Wind:
Aussen-T/F 51 09-01-2011 10:11:02 3 C 5.17 g/m*3 3 C 0 km/h
52 09-01-2011 10:23:01 2.9 C 5.14 g/m*3 2.9 C 0 km/h
53 09-01-2011 10:35:01 2.8 C 5.1 g/m*3 2.8 C 0 km/h
54 09-01-2011 10:47:01 3 C 5.17 g/m*3 3 C 0 km/h
55 09-01-2011 10:59:01 3.4 C 5.31 g/m*3 3.4 C 0 km/h
56 09-01-2011 11:11:01 3.9 C 5.56 g/m*3 3.9 C 0 km/h
57 09-01-2011 11:23:02 4.1 C 5.5 g/m*3 4.1 C 0 km/h
58 09-01-2011 11:35:01 4.1 C 5.44 g/m*3 4.1 C 0 km/h
59 09-01-2011 11:47:02 4.1 C 5.38 g/m*3 4.1 C 0 km/h
60 09-01-2011 11:59:02 4.3 C 5.45 g/m*3 4.3 C 0 km/h
61 09-01-2011 12:11:01 4.3 C 5.38 g/m*3 4.3 C 0 km/h
62 09-01-2011 12:23:02 4.5 C 5.39 g/m*3 4.5 C 0 km/h
63 09-01-2011 12:35:01 4.6 C 5.36 g/m*3 4.6 C 0 km/h
64 09-01-2011 12:47:02 4.8 C 5.43 g/m*3 4.8 C 0 km/h
65 09-01-2011 12:59:02 4.6 C 5.36 g/m*3 4.6 C 0 km/h
66 09-01-2011 13:11:02 4.8 C 5.43 g/m*3 4.8 C 0 km/h
67 09-01-2011 13:23:02 5.1 C 5.34 g/m*3 5.1 C 0 km/h
68 09-01-2011 13:35:02 5.1 C 5.34 g/m*3 5.1 C 0 km/h
69 09-01-2011 13:47:02 5.2 C 5.23 g/m*3 5.2 C 0 km/h
70 09-01-2011 13:59:02 5.2 C 5.3 g/m*3 5.2 C 0 km/h
71 09-01-2011 14:11:01 5.2 C 5.23 g/m*3 5.2 C 0 km/h
72 09-01-2011 14:23:01 5.3 C 5.27 g/m*3 5.3 C 0 km/h
73 09-01-2011 14:35:02 5.3 C 5.27 g/m*3 5.3 C 0 km/h
74 09-01-2011 14:47:02 5.2 C 5.3 g/m*3 5.2 C 0 km/h
75 09-01-2011 14:59:02 5.2 C 5.23 g/m*3 5.2 C 0 km/h
Sensor: Nr:Datum:Temp:Abs-Feuchte:Windchill:Wind:
Aussen-T/F 76 09-01-2011 15:11:02 5 C 5.37 g/m*3 5 C 0 km/h
77 09-01-2011 15:23:02 4.8 C 5.5 g/m*3 4.8 C 0 km/h
78 09-01-2011 15:35:02 4.6 C 5.49 g/m*3 4.6 C 0 km/h
79 09-01-2011 15:47:02 4.4 C 5.42 g/m*3 4.4 C 0 km/h
80 09-01-2011 15:59:02 4.1 C 5.38 g/m*3 4.1 C 0 km/h
81 09-01-2011 16:11:02 3.8 C 5.4 g/m*3 3.8 C 0 km/h
82 09-01-2011 16:23:02 3.4 C 5.31 g/m*3 3.4 C 0 km/h
83 09-01-2011 16:35:02 3.2 C 5.24 g/m*3 3.2 C 0 km/h
84 09-01-2011 16:47:02 3 C 5.23 g/m*3 3 C 0 km/h
85 09-01-2011 16:59:02 2.9 C 5.26 g/m*3 2.9 C 0 km/h
86 09-01-2011 17:11:02 3.2 C 5.36 g/m*3 3.2 C 0 km/h
87 09-01-2011 17:23:02 2.9 C 5.26 g/m*3 2.9 C 0 km/h
88 09-01-2011 17:35:02 2.7 C 5.19 g/m*3 2.7 C 0 km/h
89 09-01-2011 17:47:02 2.6 C 5.21 g/m*3 2.6 C 0 km/h
90 09-01-2011 17:59:02 2.5 C 5.17 g/m*3 2.5 C 0 km/h
91 09-01-2011 18:11:02 2.2 C 5.07 g/m*3 2.2 C 0 km/h
92 09-01-2011 18:23:03 1.9 C 5.02 g/m*3 1.9 C 0 km/h
93 09-01-2011 18:35:02 1.7 C 4.95 g/m*3 1.7 C 0 km/h
94 09-01-2011 18:47:02 1.5 C 4.89 g/m*3 1.5 C 0 km/h
95 09-01-2011 18:59:02 1.5 C 4.89 g/m*3 1.5 C 0 km/h
96 09-01-2011 19:11:02 1.6 C 4.97 g/m*3 1.6 C 0 km/h
97 09-01-2011 19:23:02 1.7 C 5.01 g/m*3 1.7 C 0 km/h
98 09-01-2011 19:35:02 2 C 5.11 g/m*3 2 C 0 km/h
99 09-01-2011 19:47:02 1.9 C 5.08 g/m*3 1.9 C 0 km/h
100 09-01-2011 19:59:02 1.8 C 5.04 g/m*3 1.8 C 0 km/h
Sensor: Nr:Datum:Temp:Abs-Feuchte:Windchill:Wind:
Aussen-T/F 101 09-01-2011 20:11:02 1.4 C 4.91 g/m*3 1.4 C 0 km/h
102 09-01-2011 20:23:02 1.5 C 4.94 g/m*3 1.5 C 0 km/h
103 09-01-2011 20:35:02 1.5 C 4.94 g/m*3 1.5 C 0 km/h
104 09-01-2011 20:47:02 1 C 4.72 g/m*3 1 C 0 km/h
105 09-01-2011 20:59:02 0.8 C 4.71 g/m*3 0.8 C 0 km/h
106 09-01-2011 21:11:02 0.5 C 4.61 g/m*3 0.5 C 0 km/h
107 09-01-2011 21:23:02 0.3 C 4.55 g/m*3 0.3 C 0 km/h
108 09-01-2011 21:35:01 0.9 C 4.79 g/m*3 0.9 C 0 km/h
109 09-01-2011 21:47:02 0.8 C 4.71 g/m*3 0.8 C 0 km/h
110 09-01-2011 21:59:02 0.7 C 4.73 g/m*3 0.7 C 0 km/h
111 09-01-2011 22:11:02 0.2 C 4.52 g/m*3 0.2 C 0 km/h
112 09-01-2011 22:23:02 0.3 C 4.6 g/m*3 0.3 C 0 km/h
113 09-01-2011 22:36:02 0 C 4.46 g/m*3 0 C 0 km/h
114 09-01-2011 22:48:02 -0.2 C 4.4 g/m*3 -0.2 C 0 km/h
115 09-01-2011 23:00:02 0.1 C 4.54 g/m*3 0.1 C 0 km/h
116 09-01-2011 23:12:02 0.2 C 4.57 g/m*3 0.2 C 0 km/h
117 09-01-2011 23:24:02 -0.3 C 4.41 g/m*3 -0.3 C 0 km/h
118 09-01-2011 23:36:02 0.1 C 4.54 g/m*3 0.1 C 0 km/h
119 09-01-2011 23:48:02 0 C 4.51 g/m*3 0 C 0 km/h
120 10-01-2011 00:00:02 0.3 C 4.6 g/m*3 0.3 C 0 km/h
121 10-01-2011 00:12:02 0.6 C 4.7 g/m*3 0.6 C 0 km/h
122 10-01-2011 00:24:02 0.3 C 4.6 g/m*3 0.3 C 0 km/h
123 10-01-2011 00:36:02 -0.2 C 4.44 g/m*3 -0.2 C 0 km/h
124 10-01-2011 00:48:02 -0.2 C 4.44 g/m*3 -0.2 C 0 km/h
125 10-01-2011 01:00:02 0.2 C 4.57 g/m*3 0.2 C 0 km/h
Sensor: Nr:Datum:Temp:Abs-Feuchte:Windchill:Wind:
Aussen-T/F 126 10-01-2011 01:12:02 0.3 C 4.6 g/m*3 0.3 C 0 km/h
127 10-01-2011 01:24:02 0.4 C 4.63 g/m*3 0.4 C 0 km/h
128 10-01-2011 01:36:02 0.3 C 4.65 g/m*3 0.3 C 0 km/h
129 10-01-2011 01:48:02 0.2 C 4.62 g/m*3 0.2 C 0 km/h
130 10-01-2011 02:00:02 0.2 C 4.62 g/m*3 0.2 C 0 km/h
131 10-01-2011 02:12:02 0.1 C 4.54 g/m*3 0.1 C 0 km/h
132 10-01-2011 02:24:02 0 C 4.55 g/m*3 0 C 0 km/h
133 10-01-2011 02:36:03 -0.1 C 4.52 g/m*3 -0.1 C 0 km/h
134 10-01-2011 02:48:03 -0.1 C 4.52 g/m*3 -0.1 C 0 km/h
135 10-01-2011 03:00:03 0 C 4.55 g/m*3 0 C 0 km/h
136 10-01-2011 03:12:03 0.2 C 4.62 g/m*3 0.2 C 0 km/h
137 10-01-2011 03:24:03 0.3 C 4.65 g/m*3 0.3 C 0 km/h
138 10-01-2011 03:36:03 0.2 C 4.62 g/m*3 0.2 C 0 km/h
139 10-01-2011 03:48:03 0.3 C 4.65 g/m*3 0.3 C 0 km/h
140 10-01-2011 04:00:03 0.4 C 4.68 g/m*3 0.4 C 0 km/h
141 10-01-2011 04:12:03 0.4 C 4.68 g/m*3 0.4 C 0 km/h
142 10-01-2011 04:24:03 0.4 C 4.68 g/m*3 0.4 C 0 km/h
143 10-01-2011 04:36:03 0.4 C 4.68 g/m*3 0.4 C 0 km/h
144 10-01-2011 04:48:03 0.3 C 4.65 g/m*3 0.3 C 0 km/h
145 10-01-2011 05:00:03 0.3 C 4.65 g/m*3 0.3 C 0 km/h
146 10-01-2011 05:12:03 0.3 C 4.65 g/m*3 0.3 C 0 km/h
147 10-01-2011 05:24:03 0.2 C 4.62 g/m*3 0.2 C 0 km/h
148 10-01-2011 05:36:03 0.3 C 4.65 g/m*3 0.3 C 0 km/h
149 10-01-2011 05:48:03 0.2 C 4.57 g/m*3 0.2 C 0 km/h
150 10-01-2011 06:00:03 0.2 C 4.57 g/m*3 0.2 C 0 km/h
Sensor: Nr:Datum:Temp:Abs-Feuchte:Windchill:Wind:
Aussen-T/F 151 10-01-2011 06:12:03 0.2 C 4.57 g/m*3 0.2 C 0 km/h
152 10-01-2011 06:24:03 0.2 C 4.57 g/m*3 0.2 C 0 km/h
153 10-01-2011 06:36:04 0.2 C 4.57 g/m*3 0.2 C 0 km/h
154 10-01-2011 06:48:04 0.2 C 4.57 g/m*3 0.2 C 0 km/h
155 10-01-2011 07:00:04 0.2 C 4.57 g/m*3 0.2 C 0 km/h
156 10-01-2011 07:12:01 -0.1 C 4.47 g/m*3 -0.1 C 0 km/h
157 10-01-2011 07:24:02 0 C 4.51 g/m*3 0 C 0 km/h
158 10-01-2011 07:36:01 0.1 C 4.54 g/m*3 0.1 C 0 km/h
159 10-01-2011 07:48:02 0.3 C 4.6 g/m*3 0.3 C 0 km/h
160 10-01-2011 08:00:02 0.3 C 4.6 g/m*3 0.3 C 0 km/h
161 10-01-2011 08:12:01 0.2 C 4.52 g/m*3 0.2 C 0 km/h
162 10-01-2011 08:24:02 0.2 C 4.52 g/m*3 0.2 C 0 km/h
163 10-01-2011 08:36:01 0.1 C 4.44 g/m*3 0.1 C 0 km/h
164 10-01-2011 08:48:03 0.1 C 4.44 g/m*3 0.1 C 0 km/h
165 10-01-2011 09:00:03 0.2 C 4.47 g/m*3 0.2 C 0 km/h
166 10-01-2011 09:12:02 0.3 C 4.45 g/m*3 0.3 C 0 km/h
167 10-01-2011 09:24:02 0.4 C 4.48 g/m*3 0.4 C 0 km/h
168 10-01-2011 09:36:02 0.3 C 4.4 g/m*3 0.3 C 0 km/h
169 10-01-2011 09:48:02 0.4 C 4.43 g/m*3 0.4 C 0 km/h
170 10-01-2011 10:00:02 0.5 C 4.41 g/m*3 0.5 C 0 km/h
171 10-01-2011 10:12:02 0.2 C 4.27 g/m*3 0.2 C 0 km/h
172 10-01-2011 10:24:02 0.5 C 4.36 g/m*3 0.5 C 0 km/h
173 10-01-2011 10:36:02 0.7 C 4.37 g/m*3 0.7 C 0 km/h
174 10-01-2011 10:48:02 0.8 C 4.4 g/m*3 0.8 C 0 km/h
175 10-01-2011 11:00:02 1.1 C 4.39 g/m*3 1.1 C 0 km/h
Sensor: Nr:Datum:Temp:Abs-Feuchte:Windchill:Wind:
Aussen-T/F 176 10-01-2011 11:12:01 0.5 C 4.16 g/m*3 0.5 C 0 km/h
177 10-01-2011 11:24:01 0.8 C 4.2 g/m*3 0.8 C 0 km/h
178 10-01-2011 11:36:02 0.8 C 4.15 g/m*3 0.8 C 0 km/h
179 10-01-2011 11:48:02 1.2 C 4.21 g/m*3 1.2 C 0 km/h
180 10-01-2011 12:00:02 1.3 C 4.24 g/m*3 1.3 C 0 km/h
181 10-01-2011 12:12:02 1.7 C 4.3 g/m*3 1.7 C 0 km/h
182 10-01-2011 12:24:01 2.1 C 4.36 g/m*3 2.1 C 0 km/h
183 10-01-2011 12:36:02 2 C 4.33 g/m*3 2 C 0 km/h
184 10-01-2011 12:48:02 1.8 C 4.28 g/m*3 1.8 C 0 km/h
185 10-01-2011 13:00:02 2.1 C 4.36 g/m*3 2.1 C 0 km/h
186 10-01-2011 13:12:02 2 C 4.33 g/m*3 2 C 0 km/h
187 10-01-2011 13:24:01 2 C 4.39 g/m*3 2 C 0 km/h
188 10-01-2011 13:36:02 2.2 C 4.45 g/m*3 2.2 C 0 km/h
189 10-01-2011 13:48:02 2.2 C 4.39 g/m*3 2.2 C 0 km/h
190 10-01-2011 14:00:02 2.4 C 4.45 g/m*3 2.4 C 0 km/h
191 10-01-2011 14:12:02 2.5 C 4.48 g/m*3 2.5 C 0 km/h
192 10-01-2011 14:24:02 2.3 C 4.48 g/m*3 2.3 C 0 km/h
193 10-01-2011 14:36:02 2.1 C 4.36 g/m*3 2.1 C 0 km/h
194 10-01-2011 14:48:02 2 C 4.33 g/m*3 2 C 0 km/h
195 10-01-2011 15:00:02 2 C 4.33 g/m*3 2 C 0 km/h
196 10-01-2011 15:12:02 2.1 C 4.36 g/m*3 2.1 C 0 km/h
197 10-01-2011 15:24:02 2.1 C 4.36 g/m*3 2.1 C 0 km/h
198 10-01-2011 15:36:01 2.2 C 4.39 g/m*3 2.2 C 0 km/h
199 10-01-2011 15:48:02 2.1 C 4.36 g/m*3 2.1 C 0 km/h
200 10-01-2011 16:00:02 2.1 C 4.36 g/m*3 2.1 C 0 km/h
Sensor: Nr:Datum:Temp:Abs-Feuchte:Windchill:Wind:
Aussen-T/F 201 10-01-2011 16:12:01 2 C 4.33 g/m*3 2 C 0 km/h
202 10-01-2011 16:24:02 1.9 C 4.36 g/m*3 1.9 C 0 km/h
203 10-01-2011 16:36:02 1.8 C 4.33 g/m*3 1.8 C 0 km/h
204 10-01-2011 16:48:02 1.5 C 4.24 g/m*3 1.5 C 0 km/h
205 10-01-2011 17:00:02 1.2 C 4.21 g/m*3 1.2 C 0 km/h
206 10-01-2011 17:12:02 0.8 C 4.2 g/m*3 0.8 C 0 km/h
207 10-01-2011 17:24:02 0.7 C 4.22 g/m*3 0.7 C 0 km/h
208 10-01-2011 17:36:02 0.7 C 4.27 g/m*3 0.7 C 0 km/h
209 10-01-2011 17:48:02 0.8 C 4.3 g/m*3 0.8 C 0 km/h
210 10-01-2011 18:00:02 0.7 C 4.27 g/m*3 0.7 C 0 km/h
211 10-01-2011 18:12:01 0.4 C 4.18 g/m*3 0.4 C 0 km/h
212 10-01-2011 18:24:02 0.1 C 4.1 g/m*3 0.1 C 0 km/h
213 10-01-2011 18:36:02 -0.1 C 4.09 g/m*3 -0.1 C 0 km/h
214 10-01-2011 18:48:02 0 C 4.17 g/m*3 0 C 0 km/h
215 10-01-2011 19:00:02 0.1 C 4.24 g/m*3 0.1 C 0 km/h
216 10-01-2011 19:12:02 0.2 C 4.27 g/m*3 0.2 C 0 km/h
217 10-01-2011 19:24:02 0.2 C 4.32 g/m*3 0.2 C 0 km/h
218 10-01-2011 19:36:02 0.4 C 4.38 g/m*3 0.4 C 0 km/h
219 10-01-2011 19:48:02 0.4 C 4.38 g/m*3 0.4 C 0 km/h
220 10-01-2011 20:00:02 0.4 C 4.38 g/m*3 0.4 C 0 km/h
221 10-01-2011 20:12:02 0.6 C 4.39 g/m*3 0.6 C 0 km/h
222 10-01-2011 20:24:01 0.8 C 4.4 g/m*3 0.8 C 0 km/h
223 10-01-2011 20:36:02 0.8 C 4.3 g/m*3 0.8 C 0 km/h
224 10-01-2011 20:48:02 0.8 C 4.25 g/m*3 0.8 C 0 km/h
225 10-01-2011 21:00:02 0.7 C 4.12 g/m*3 0.7 C 0 km/h
Sensor: Nr:Datum:Temp:Abs-Feuchte:Windchill:Wind:
Aussen-T/F 226 10-01-2011 21:12:02 0.6 C 4.04 g/m*3 0.6 C 0 km/h
227 10-01-2011 21:24:01 0.5 C 4.01 g/m*3 0.5 C 0 km/h
228 10-01-2011 21:36:02 0.5 C 4.01 g/m*3 0.5 C 0 km/h
229 10-01-2011 21:48:02 0.5 C 4.01 g/m*3 0.5 C 0 km/h
230 10-01-2011 22:00:02 0.5 C 4.06 g/m*3 0.5 C 0 km/h
231 10-01-2011 22:12:02 0.5 C 4.06 g/m*3 0.5 C 0 km/h
232 10-01-2011 22:25:04 0.5 C 4.06 g/m*3 0.5 C 0 km/h
233 10-01-2011 22:37:04 0.5 C 4.06 g/m*3 0.5 C 0 km/h
234 10-01-2011 22:49:04 0.5 C 4.01 g/m*3 0.5 C 0 km/h
235 10-01-2011 23:01:04 0.5 C 4.01 g/m*3 0.5 C 0 km/h
236 10-01-2011 23:13:04 0.5 C 4.01 g/m*3 0.5 C 0 km/h
237 10-01-2011 23:25:04 0.5 C 4.01 g/m*3 0.5 C 0 km/h
238 10-01-2011 23:37:04 0.6 C 4.09 g/m*3 0.6 C 0 km/h
239 10-01-2011 23:49:04 0.6 C 4.09 g/m*3 0.6 C 0 km/h
240 11-01-2011 00:01:04 0.6 C 4.04 g/m*3 0.6 C 0 km/h
241 11-01-2011 00:13:05 0.5 C 3.96 g/m*3 0.5 C 0 km/h
242 11-01-2011 00:25:05 0.3 C 3.96 g/m*3 0.3 C 0 km/h
243 11-01-2011 00:37:05 -0.2 C 3.82 g/m*3 -0.2 C 0 km/h
244 11-01-2011 00:49:05 -0.4 C 3.86 g/m*3 -0.4 C 0 km/h
245 11-01-2011 01:01:05 -0.2 C 4.01 g/m*3 -0.2 C 0 km/h
246 11-01-2011 01:13:05 -0.1 C 4.04 g/m*3 -0.1 C 0 km/h
247 11-01-2011 01:25:05 -0.4 C 4.01 g/m*3 -0.4 C 0 km/h
248 11-01-2011 01:37:05 -0.1 C 4.14 g/m*3 -0.1 C 0 km/h
249 11-01-2011 01:49:05 0.2 C 4.22 g/m*3 0.2 C 0 km/h
250 11-01-2011 02:01:05 0.6 C 4.29 g/m*3 0.6 C 0 km/h
Sensor: Nr:Datum:Temp:Abs-Feuchte:Windchill:Wind:
Aussen-T/F 251 11-01-2011 02:13:05 0.7 C 4.22 g/m*3 0.7 C 0 km/h
252 11-01-2011 02:25:05 0.8 C 4.2 g/m*3 0.8 C 0 km/h
253 11-01-2011 02:37:05 1 C 4.1 g/m*3 1 C 0 km/h
254 11-01-2011 02:49:05 0.8 C 4.04 g/m*3 0.8 C 0 km/h
255 11-01-2011 03:01:05 0.8 C 4.04 g/m*3 0.8 C 0 km/h
256 11-01-2011 03:13:05 0.8 C 4.04 g/m*3 0.8 C 0 km/h
257 11-01-2011 03:25:05 0.6 C 4.04 g/m*3 0.6 C 0 km/h
258 11-01-2011 03:37:05 0.8 C 4.1 g/m*3 0.8 C 0 km/h
259 11-01-2011 03:49:05 0.6 C 4.04 g/m*3 0.6 C 0 km/h
260 11-01-2011 04:01:05 0.3 C 3.96 g/m*3 0.3 C 0 km/h
261 11-01-2011 04:13:06 0.2 C 3.98 g/m*3 0.2 C 0 km/h
262 11-01-2011 04:25:06 0.1 C 4 g/m*3 0.1 C 0 km/h
263 11-01-2011 04:37:06 0.6 C 4.14 g/m*3 0.6 C 0 km/h
264 11-01-2011 04:49:06 0.9 C 4.18 g/m*3 0.9 C 0 km/h
265 11-01-2011 05:01:06 1.1 C 4.13 g/m*3 1.1 C 0 km/h
266 11-01-2011 05:13:06 1.1 C 4.13 g/m*3 1.1 C 0 km/h
267 11-01-2011 05:25:06 1.1 C 4.13 g/m*3 1.1 C 0 km/h
268 11-01-2011 05:37:06 1.1 C 4.13 g/m*3 1.1 C 0 km/h
269 11-01-2011 05:49:06 1.1 C 4.13 g/m*3 1.1 C 0 km/h
270 11-01-2011 06:01:06 1.2 C 4.16 g/m*3 1.2 C 0 km/h
271 11-01-2011 06:13:06 1.2 C 4.16 g/m*3 1.2 C 0 km/h
272 11-01-2011 06:25:06 1.3 C 4.19 g/m*3 1.3 C 0 km/h
273 11-01-2011 06:37:06 1.3 C 4.24 g/m*3 1.3 C 0 km/h
274 11-01-2011 06:49:06 1.3 C 4.24 g/m*3 1.3 C 0 km/h
275 11-01-2011 07:01:06 1.4 C 4.27 g/m*3 1.4 C 0 km/h
Sensor: Nr:Datum:Temp:Abs-Feuchte:Windchill:Wind:
Aussen-T/F 276 11-01-2011 07:13:06 1.4 C 4.32 g/m*3 1.4 C 0 km/h
277 11-01-2011 07:25:03 1.4 C 4.32 g/m*3 1.4 C 0 km/h
278 11-01-2011 07:37:03 1.4 C 4.32 g/m*3 1.4 C 0 km/h
279 11-01-2011 07:49:02 1.5 C 4.4 g/m*3 1.5 C 0 km/h
280 11-01-2011 08:01:02 1.5 C 4.4 g/m*3 1.5 C 0 km/h
281 11-01-2011 08:13:02 1.5 C 4.4 g/m*3 1.5 C 0 km/h
282 11-01-2011 08:25:03 1.5 C 4.46 g/m*3 1.5 C 0 km/h
283 11-01-2011 08:37:02 1.5 C 4.46 g/m*3 1.5 C 0 km/h
284 11-01-2011 08:49:03 1.5 C 4.51 g/m*3 1.5 C 0 km/h
285 11-01-2011 09:01:02 1.6 C 4.54 g/m*3 1.6 C 0 km/h
286 11-01-2011 09:13:02 1.8 C 4.66 g/m*3 1.8 C 0 km/h
287 11-01-2011 09:25:02 2 C 4.67 g/m*3 2 C 0 km/h
288 11-01-2011 09:37:02 2.3 C 4.71 g/m*3 2.3 C 0 km/h
289 11-01-2011 09:49:02 2.6 C 4.75 g/m*3 2.6 C 0 km/h
290 11-01-2011 10:01:02 2.9 C 4.72 g/m*3 2.9 C 0 km/h
291 11-01-2011 10:13:02 3.2 C 4.7 g/m*3 3.2 C 0 km/h
292 11-01-2011 10:25:02 3.2 C 4.58 g/m*3 3.2 C 0 km/h
293 11-01-2011 10:37:02 3.2 C 4.58 g/m*3 3.2 C 0 km/h
294 11-01-2011 10:49:02 2.7 C 4.54 g/m*3 2.7 C 0 km/h
295 11-01-2011 11:01:02 2.5 C 4.6 g/m*3 2.5 C 0 km/h
296 11-01-2011 11:13:02 2.6 C 4.75 g/m*3 2.6 C 0 km/h
297 11-01-2011 11:25:02 2.8 C 4.87 g/m*3 2.8 C 0 km/h
298 11-01-2011 11:37:02 3.7 C 5.17 g/m*3 3.7 C 0 km/h
299 11-01-2011 11:49:02 4.8 C 5.1 g/m*3 4.8 C 0 km/h
300 11-01-2011 12:01:02 5.4 C 4.74 g/m*3 5.4 C 0 km/h
Sensor: Nr:Datum:Temp:Abs-Feuchte:Windchill:Wind:
Aussen-T/F 301 11-01-2011 12:13:02 5.7 C 4.63 g/m*3 5.7 C 0 km/h
302 11-01-2011 12:25:02 5.7 C 4.55 g/m*3 5.7 C 0 km/h
303 11-01-2011 12:37:01 5.6 C 4.6 g/m*3 5.6 C 0 km/h
304 11-01-2011 12:49:02 5.1 C 4.58 g/m*3 5.1 C 0 km/h
305 11-01-2011 13:01:01 5.2 C 4.75 g/m*3 5.2 C 0 km/h
306 11-01-2011 13:13:01 5.1 C 4.72 g/m*3 5.1 C 0 km/h
307 11-01-2011 13:25:01 5.3 C 4.71 g/m*3 5.3 C 0 km/h
308 11-01-2011 13:37:02 5.5 C 4.85 g/m*3 5.5 C 0 km/h
309 11-01-2011 13:49:02 5.4 C 4.74 g/m*3 5.4 C 0 km/h
310 11-01-2011 14:01:02 5.3 C 4.85 g/m*3 5.3 C 0 km/h
311 11-01-2011 14:13:02 5.3 C 4.92 g/m*3 5.3 C 0 km/h
312 11-01-2011 14:25:02 5.3 C 4.85 g/m*3 5.3 C 0 km/h
313 11-01-2011 14:37:02 5.3 C 4.92 g/m*3 5.3 C 0 km/h
314 11-01-2011 14:49:02 5.3 C 4.92 g/m*3 5.3 C 0 km/h
315 11-01-2011 15:01:02 5.3 C 5.06 g/m*3 5.3 C 0 km/h
316 11-01-2011 15:13:02 5.5 C 5.06 g/m*3 5.5 C 0 km/h
317 11-01-2011 15:25:02 5.6 C 5.02 g/m*3 5.6 C 0 km/h
318 11-01-2011 15:37:02 5.3 C 5.06 g/m*3 5.3 C 0 km/h
319 11-01-2011 15:49:01 5.1 C 5.13 g/m*3 5.1 C 0 km/h
320 11-01-2011 16:01:01 4.8 C 5.3 g/m*3 4.8 C 0 km/h
321 11-01-2011 16:13:01 4.6 C 5.43 g/m*3 4.6 C 0 km/h
322 11-01-2011 16:25:02 4.5 C 5.46 g/m*3 4.5 C 0 km/h
323 11-01-2011 16:37:01 4.5 C 5.46 g/m*3 4.5 C 0 km/h
324 11-01-2011 16:49:03 4.5 C 5.46 g/m*3 4.5 C 0 km/h
325 11-01-2011 17:01:02 4.7 C 5.53 g/m*3 4.7 C 0 km/h
Sensor: Nr:Datum:Temp:Abs-Feuchte:Windchill:Wind:
Aussen-T/F 326 11-01-2011 17:13:02 4.7 C 5.46 g/m*3 4.7 C 0 km/h
327 11-01-2011 17:25:02 5.2 C 5.44 g/m*3 5.2 C 0 km/h
328 11-01-2011 17:37:02 5.4 C 5.44 g/m*3 5.4 C 0 km/h
329 11-01-2011 17:49:02 5.5 C 5.41 g/m*3 5.5 C 0 km/h
330 11-01-2011 18:01:02 5.3 C 5.41 g/m*3 5.3 C 0 km/h
331 11-01-2011 18:13:02 5.3 C 5.48 g/m*3 5.3 C 0 km/h
332 11-01-2011 18:25:02 5.4 C 5.51 g/m*3 5.4 C 0 km/h
333 11-01-2011 18:37:02 5.6 C 5.59 g/m*3 5.6 C 0 km/h
334 11-01-2011 18:49:02 5.8 C 5.59 g/m*3 5.8 C 0 km/h
335 11-01-2011 19:01:01 6 C 5.52 g/m*3 6 C 0 km/h
336 11-01-2011 19:13:01 6 C 5.52 g/m*3 6 C 0 km/h
337 11-01-2011 19:25:01 6 C 5.59 g/m*3 6 C 0 km/h
338 11-01-2011 19:37:02 6 C 5.59 g/m*3 6 C 0 km/h
339 11-01-2011 19:49:02 5.9 C 5.62 g/m*3 5.9 C 0 km/h
340 11-01-2011 20:01:02 6 C 5.59 g/m*3 6 C 0 km/h
341 11-01-2011 20:13:02 6.1 C 5.63 g/m*3 6.1 C 0 km/h
342 11-01-2011 20:25:02 6.1 C 5.63 g/m*3 6.1 C 0 km/h
343 11-01-2011 20:37:02 6.2 C 5.59 g/m*3 6.2 C 0 km/h
344 11-01-2011 20:49:02 6.3 C 5.55 g/m*3 6.3 C 0 km/h
345 11-01-2011 21:01:02 6.3 C 5.63 g/m*3 6.3 C 0 km/h
346 11-01-2011 21:13:02 6.3 C 5.63 g/m*3 6.3 C 0 km/h
347 11-01-2011 21:25:02 6.1 C 5.63 g/m*3 6.1 C 0 km/h
348 11-01-2011 21:37:02 6.1 C 5.7 g/m*3 6.1 C 0 km/h
349 11-01-2011 21:50:03 6 C 5.73 g/m*3 6 C 0 km/h
350 11-01-2011 22:02:03 5.8 C 5.8 g/m*3 5.8 C 0 km/h
Sensor: Nr:Datum:Temp:Abs-Feuchte:Windchill:Wind:
Aussen-T/F 351 11-01-2011 22:14:03 5.9 C 5.91 g/m*3 5.9 C 0 km/h
352 11-01-2011 22:26:03 5.9 C 5.91 g/m*3 5.9 C 0 km/h
353 11-01-2011 22:38:03 6.3 C 6 g/m*3 6.3 C 0 km/h
354 11-01-2011 22:50:03 5.9 C 5.91 g/m*3 5.9 C 0 km/h
355 11-01-2011 23:02:03 5.9 C 6.06 g/m*3 5.9 C 0 km/h
356 11-01-2011 23:14:03 5.9 C 6.06 g/m*3 5.9 C 0 km/h
357 11-01-2011 23:26:03 6 C 6.02 g/m*3 6 C 0 km/h
358 11-01-2011 23:38:03 6.1 C 5.99 g/m*3 6.1 C 0 km/h
359 11-01-2011 23:50:03 6.1 C 5.92 g/m*3 6.1 C 0 km/h
360 12-01-2011 00:02:03 6.3 C 5.77 g/m*3 6.3 C 0 km/h
361 12-01-2011 00:14:03 6.5 C 5.62 g/m*3 6.5 C 0 km/h
362 12-01-2011 00:26:03 6.2 C 5.37 g/m*3 6.2 C 0 km/h
363 12-01-2011 00:38:03 5.9 C 5.26 g/m*3 5.9 C 0 km/h
364 12-01-2011 00:50:04 5.8 C 5.3 g/m*3 5.8 C 0 km/h
365 12-01-2011 01:02:04 5.9 C 5.34 g/m*3 5.9 C 0 km/h
366 12-01-2011 01:14:04 5.8 C 5.3 g/m*3 5.8 C 0 km/h
367 12-01-2011 01:26:04 6 C 5.23 g/m*3 6 C 0 km/h
368 12-01-2011 01:38:04 6 C 5.15 g/m*3 6 C 0 km/h
369 12-01-2011 01:50:04 6.1 C 5.11 g/m*3 6.1 C 0 km/h
370 12-01-2011 02:02:04 6 C 5.08 g/m*3 6 C 0 km/h
371 12-01-2011 02:14:04 6 C 5.08 g/m*3 6 C 0 km/h
372 12-01-2011 02:26:04 5.9 C 5.12 g/m*3 5.9 C 0 km/h
373 12-01-2011 02:38:04 5.9 C 5.05 g/m*3 5.9 C 0 km/h
374 12-01-2011 02:50:04 5.7 C 4.98 g/m*3 5.7 C 0 km/h
375 12-01-2011 03:02:04 5.5 C 4.99 g/m*3 5.5 C 0 km/h
Sensor: Nr:Datum:Temp:Abs-Feuchte:Windchill:Wind:
Aussen-T/F 376 12-01-2011 03:14:04 5 C 5.1 g/m*3 5 C 0 km/h
377 12-01-2011 03:26:04 4.9 C 5.27 g/m*3 4.9 C 0 km/h
378 12-01-2011 03:38:04 4.7 C 5.26 g/m*3 4.7 C 0 km/h
379 12-01-2011 03:50:04 4.5 C 5.26 g/m*3 4.5 C 0 km/h
380 12-01-2011 04:02:04 4.3 C 5.32 g/m*3 4.3 C 0 km/h
381 12-01-2011 04:14:04 4.3 C 5.32 g/m*3 4.3 C 0 km/h
382 12-01-2011 04:26:04 4.1 C 5.31 g/m*3 4.1 C 0 km/h
383 12-01-2011 04:38:04 3.9 C 5.37 g/m*3 3.9 C 0 km/h
384 12-01-2011 04:50:05 3.8 C 5.4 g/m*3 3.8 C 0 km/h
385 12-01-2011 05:02:05 3.8 C 5.33 g/m*3 3.8 C 0 km/h
386 12-01-2011 05:14:05 3.8 C 5.27 g/m*3 3.8 C 0 km/h
387 12-01-2011 05:26:05 3.7 C 5.23 g/m*3 3.7 C 0 km/h
388 12-01-2011 05:38:05 3.7 C 5.17 g/m*3 3.7 C 0 km/h
389 12-01-2011 05:50:05 3.8 C 5.21 g/m*3 3.8 C 0 km/h
390 12-01-2011 06:02:05 3.6 C 5.14 g/m*3 3.6 C 0 km/h
391 12-01-2011 06:14:05 3.5 C 5.16 g/m*3 3.5 C 0 km/h
392 12-01-2011 06:26:05 3.6 C 5.14 g/m*3 3.6 C 0 km/h
393 12-01-2011 06:38:05 3.6 C 5.14 g/m*3 3.6 C 0 km/h
394 12-01-2011 06:50:05 3.5 C 5.04 g/m*3 3.5 C 0 km/h
395 12-01-2011 07:02:02 3.5 C 5.04 g/m*3 3.5 C 0 km/h
396 12-01-2011 07:14:02 3.6 C 5.08 g/m*3 3.6 C 0 km/h
397 12-01-2011 07:26:02 3.3 C 4.97 g/m*3 3.3 C 0 km/h
398 12-01-2011 07:38:02 3.1 C 4.97 g/m*3 3.1 C 0 km/h
399 12-01-2011 07:50:01 3.1 C 5.03 g/m*3 3.1 C 0 km/h
400 12-01-2011 08:02:01 3 C 4.99 g/m*3 3 C 0 km/h
Sensor: Nr:Datum:Temp:Abs-Feuchte:Windchill:Wind:
Aussen-T/F 401 12-01-2011 08:14:01 2.8 C 4.93 g/m*3 2.8 C 0 km/h
402 12-01-2011 08:26:01 3.1 C 5.03 g/m*3 3.1 C 0 km/h
403 12-01-2011 08:38:01 3 C 4.99 g/m*3 3 C 0 km/h
404 12-01-2011 08:50:01 3 C 4.99 g/m*3 3 C 0 km/h
405 12-01-2011 09:02:01 3.5 C 5.16 g/m*3 3.5 C 0 km/h
406 12-01-2011 09:14:01 3.5 C 5.04 g/m*3 3.5 C 0 km/h
407 12-01-2011 09:26:02 3.7 C 5.11 g/m*3 3.7 C 0 km/h
408 12-01-2011 09:38:01 4 C 4.96 g/m*3 4 C 0 km/h
409 12-01-2011 09:50:02 4.5 C 4.93 g/m*3 4.5 C 0 km/h
410 12-01-2011 10:02:02 4.6 C 4.83 g/m*3 4.6 C 0 km/h
411 12-01-2011 10:14:02 4.7 C 4.93 g/m*3 4.7 C 0 km/h
412 12-01-2011 10:26:01 4.9 C 4.93 g/m*3 4.9 C 0 km/h
413 12-01-2011 10:38:02 4.9 C 4.86 g/m*3 4.9 C 0 km/h
414 12-01-2011 10:50:02 5 C 4.82 g/m*3 5 C 0 km/h
415 12-01-2011 11:02:02 5.1 C 4.86 g/m*3 5.1 C 0 km/h
416 12-01-2011 11:14:02 5.2 C 4.82 g/m*3 5.2 C 0 km/h
417 12-01-2011 11:26:01 5.4 C 4.81 g/m*3 5.4 C 0 km/h
418 12-01-2011 11:38:02 5.3 C 4.85 g/m*3 5.3 C 0 km/h
419 12-01-2011 11:50:01 5.3 C 4.92 g/m*3 5.3 C 0 km/h
420 12-01-2011 12:02:02 5.2 C 4.96 g/m*3 5.2 C 0 km/h
421 12-01-2011 12:14:02 5 C 5.03 g/m*3 5 C 0 km/h
422 12-01-2011 12:26:02 4.8 C 5.1 g/m*3 4.8 C 0 km/h
423 12-01-2011 12:38:02 4.7 C 5.13 g/m*3 4.7 C 0 km/h
424 12-01-2011 12:50:02 4.7 C 5.2 g/m*3 4.7 C 0 km/h
425 12-01-2011 13:02:02 4.7 C 5.2 g/m*3 4.7 C 0 km/h
Sensor: Nr:Datum:Temp:Abs-Feuchte:Windchill:Wind:
Aussen-T/F 426 12-01-2011 13:14:03 4.9 C 5.33 g/m*3 4.9 C 0 km/h
427 12-01-2011 13:26:01 5 C 5.37 g/m*3 5 C 0 km/h
428 12-01-2011 13:38:46 5 C 5.44 g/m*3 5 C 0 km/h
429 12-01-2011 13:50:02 4.9 C 5.54 g/m*3 4.9 C 0 km/h
430 12-01-2011 14:02:02 5 C 5.5 g/m*3 5 C 0 km/h
431 12-01-2011 14:14:02 5.1 C 5.47 g/m*3 5.1 C 0 km/h
432 12-01-2011 14:26:02 5.1 C 5.54 g/m*3 5.1 C 0 km/h
433 12-01-2011 14:38:02 5.1 C 5.54 g/m*3 5.1 C 0 km/h
434 12-01-2011 14:50:02 5.3 C 5.54 g/m*3 5.3 C 0 km/h
435 12-01-2011 15:02:01 5.6 C 5.51 g/m*3 5.6 C 0 km/h
436 12-01-2011 15:14:01 5.4 C 5.44 g/m*3 5.4 C 0 km/h
437 12-01-2011 15:26:02 5.2 C 5.44 g/m*3 5.2 C 0 km/h
438 12-01-2011 15:38:02 5.3 C 5.54 g/m*3 5.3 C 0 km/h
439 12-01-2011 15:50:02 5.6 C 5.59 g/m*3 5.6 C 0 km/h
440 12-01-2011 16:02:02 6 C 5.44 g/m*3 6 C 0 km/h
441 12-01-2011 16:14:02 5.9 C 5.48 g/m*3 5.9 C 0 km/h
442 12-01-2011 16:26:02 6 C 5.44 g/m*3 6 C 0 km/h
443 12-01-2011 16:38:02 6.1 C 5.48 g/m*3 6.1 C 0 km/h
444 12-01-2011 16:50:02 6.2 C 5.52 g/m*3 6.2 C 0 km/h
445 12-01-2011 17:02:02 6.2 C 5.52 g/m*3 6.2 C 0 km/h
446 12-01-2011 17:14:02 6.3 C 5.55 g/m*3 6.3 C 0 km/h
447 12-01-2011 17:26:02 6.4 C 5.59 g/m*3 6.4 C 0 km/h
448 12-01-2011 17:38:02 6 C 5.59 g/m*3 6 C 0 km/h
449 12-01-2011 17:50:01 6.1 C 5.77 g/m*3 6.1 C 0 km/h
450 12-01-2011 18:02:02 6.3 C 5.77 g/m*3 6.3 C 0 km/h
Sensor: Nr:Datum:Temp:Abs-Feuchte:Windchill:Wind:
Aussen-T/F 451 12-01-2011 18:14:02 6 C 5.81 g/m*3 6 C 0 km/h
452 12-01-2011 18:26:01 6 C 5.88 g/m*3 6 C 0 km/h
453 12-01-2011 18:38:01 6.2 C 6.03 g/m*3 6.2 C 0 km/h
454 12-01-2011 18:50:01 6.1 C 6.06 g/m*3 6.1 C 0 km/h
455 12-01-2011 19:02:01 6.1 C 6.06 g/m*3 6.1 C 0 km/h
456 12-01-2011 19:14:01 6 C 6.1 g/m*3 6 C 0 km/h
457 12-01-2011 19:26:02 6.3 C 6.22 g/m*3 6.3 C 0 km/h
458 12-01-2011 19:38:01 6.5 C 6.22 g/m*3 6.5 C 0 km/h
459 12-01-2011 19:50:02 6.6 C 6.27 g/m*3 6.6 C 0 km/h
460 12-01-2011 20:02:02 6.9 C 6.31 g/m*3 6.9 C 0 km/h
461 12-01-2011 20:14:02 6.8 C 6.27 g/m*3 6.8 C 0 km/h
462 12-01-2011 20:26:02 7 C 6.28 g/m*3 7 C 0 km/h
463 12-01-2011 20:38:02 7.1 C 6.24 g/m*3 7.1 C 0 km/h
464 12-01-2011 20:50:02 7.1 C 6.32 g/m*3 7.1 C 0 km/h
465 12-01-2011 21:02:01 7.1 C 6.4 g/m*3 7.1 C 0 km/h
466 12-01-2011 21:14:01 7.2 C 6.44 g/m*3 7.2 C 0 km/h
467 12-01-2011 21:26:02 7.5 C 6.64 g/m*3 7.5 C 0 km/h
468 12-01-2011 21:38:02 7.5 C 6.56 g/m*3 7.5 C 0 km/h
469 12-01-2011 21:50:02 7.4 C 6.52 g/m*3 7.4 C 0 km/h
470 12-01-2011 22:02:02 7.7 C 6.73 g/m*3 7.7 C 0 km/h
471 12-01-2011 22:14:02 7.7 C 6.65 g/m*3 7.7 C 0 km/h
472 12-01-2011 22:26:02 7.9 C 6.74 g/m*3 7.9 C 0 km/h
473 12-01-2011 22:38:02 8.2 C 6.7 g/m*3 8.2 C 0 km/h
474 12-01-2011 22:50:02 8.3 C 6.74 g/m*3 8.3 C 0 km/h
475 12-01-2011 23:02:02 8.5 C 6.74 g/m*3 8.5 C 0 km/h
Sensor: Nr:Datum:Temp:Abs-Feuchte:Windchill:Wind:
Aussen-T/F 476 12-01-2011 23:14:02 8.7 C 6.83 g/m*3 8.7 C 0 km/h
477 12-01-2011 23:26:01 8.8 C 6.88 g/m*3 8.8 C 0 km/h
478 12-01-2011 23:38:02 8.9 C 6.83 g/m*3 8.9 C 0 km/h
479 12-01-2011 23:50:02 8.9 C 6.83 g/m*3 8.9 C 0 km/h
480 13-01-2011 00:02:02 9 C 6.88 g/m*3 9 C 0 km/h
481 13-01-2011 00:14:02 9.3 C 6.92 g/m*3 9.3 C 0 km/h
482 13-01-2011 00:26:02 9.3 C 7.01 g/m*3 9.3 C 0 km/h
483 13-01-2011 00:38:02 9.4 C 7.05 g/m*3 9.4 C 0 km/h
484 13-01-2011 00:50:01 9.5 C 7.1 g/m*3 9.5 C 0 km/h
485 13-01-2011 01:02:02 9.7 C 7.19 g/m*3 9.7 C 0 km/h
486 13-01-2011 01:14:02 9.9 C 7.28 g/m*3 9.9 C 0 km/h
487 13-01-2011 01:26:02 10 C 7.24 g/m*3 10 C 0 km/h
488 13-01-2011 01:38:02 10.1 C 7.28 g/m*3 10.1 C 0 km/h
489 13-01-2011 01:50:02 10.2 C 7.33 g/m*3 10.2 C 0 km/h
490 13-01-2011 02:02:02 10.5 C 7.37 g/m*3 10.5 C 0 km/h
491 13-01-2011 02:14:02 10.7 C 7.56 g/m*3 10.7 C 0 km/h
492 13-01-2011 02:26:02 10.7 C 7.56 g/m*3 10.7 C 0 km/h
493 13-01-2011 02:38:01 10.7 C 7.66 g/m*3 10.7 C 0 km/h
494 13-01-2011 02:50:02 10.4 C 7.61 g/m*3 10.4 C 0 km/h
495 13-01-2011 03:02:02 10.4 C 7.71 g/m*3 10.4 C 0 km/h
496 13-01-2011 03:14:01 10.3 C 7.85 g/m*3 10.3 C 0 km/h
497 13-01-2011 03:26:01 10.3 C 7.85 g/m*3 10.3 C 0 km/h
498 13-01-2011 03:38:02 10.3 C 7.85 g/m*3 10.3 C 0 km/h
499 13-01-2011 03:50:02 10.3 C 7.95 g/m*3 10.3 C 0 km/h
500 13-01-2011 04:02:01 10.5 C 8.05 g/m*3 10.5 C 0 km/h
Sensor: Nr:Datum:Temp:Abs-Feuchte:Windchill:Wind:
Aussen-T/F 501 13-01-2011 04:14:01 10.6 C 8.1 g/m*3 10.6 C 0 km/h
502 13-01-2011 04:26:02 10.9 C 8.16 g/m*3 10.9 C 0 km/h
503 13-01-2011 04:38:01 10.7 C 7.96 g/m*3 10.7 C 0 km/h
504 13-01-2011 04:50:02 10.8 C 8.01 g/m*3 10.8 C 0 km/h
505 13-01-2011 05:02:01 11 C 8.01 g/m*3 11 C 0 km/h
506 13-01-2011 05:14:01 11.1 C 8.16 g/m*3 11.1 C 0 km/h
507 13-01-2011 05:26:01 10.7 C 8.05 g/m*3 10.7 C 0 km/h
508 13-01-2011 05:38:02 10.8 C 8.2 g/m*3 10.8 C 0 km/h
509 13-01-2011 05:50:01 10.6 C 8.2 g/m*3 10.6 C 0 km/h
510 13-01-2011 06:02:02 10.7 C 8.25 g/m*3 10.7 C 0 km/h
511 13-01-2011 06:14:02 10.5 C 8.24 g/m*3 10.5 C 0 km/h
512 13-01-2011 06:26:01 10.6 C 8.3 g/m*3 10.6 C 0 km/h
513 13-01-2011 06:38:02 10.6 C 8.39 g/m*3 10.6 C 0 km/h
514 13-01-2011 06:50:01 10.5 C 8.34 g/m*3 10.5 C 0 km/h
515 13-01-2011 07:02:01 10.6 C 8.39 g/m*3 10.6 C 0 km/h
516 13-01-2011 07:14:02 10.5 C 8.44 g/m*3 10.5 C 0 km/h
517 13-01-2011 07:26:01 10.7 C 8.55 g/m*3 10.7 C 0 km/h
518 13-01-2011 07:38:01 10.7 C 8.45 g/m*3 10.7 C 0 km/h
519 13-01-2011 07:50:01 10.8 C 8.5 g/m*3 10.8 C 0 km/h
520 13-01-2011 08:02:01 10.9 C 8.55 g/m*3 10.9 C 0 km/h
521 13-01-2011 08:14:01 10.8 C 8.5 g/m*3 10.8 C 0 km/h
522 13-01-2011 08:26:02 10.8 C 8.4 g/m*3 10.8 C 0 km/h
523 13-01-2011 08:38:01 10.8 C 8.4 g/m*3 10.8 C 0 km/h
524 13-01-2011 08:50:02 10.9 C 8.45 g/m*3 10.9 C 0 km/h
525 13-01-2011 09:02:01 10.9 C 8.45 g/m*3 10.9 C 0 km/h
Sensor: Nr:Datum:Temp:Abs-Feuchte:Windchill:Wind:
Aussen-T/F 526 13-01-2011 09:14:01 11.2 C 8.51 g/m*3 11.2 C 0 km/h
527 13-01-2011 09:26:02 11.4 C 8.52 g/m*3 11.4 C 0 km/h
528 13-01-2011 09:38:01 11.4 C 8.42 g/m*3 11.4 C 0 km/h
529 13-01-2011 09:50:02 11.4 C 8.31 g/m*3 11.4 C 0 km/h
530 13-01-2011 10:02:01 11.5 C 8.37 g/m*3 11.5 C 0 km/h
531 13-01-2011 10:14:01 11.9 C 8.47 g/m*3 11.9 C 0 km/h
532 13-01-2011 10:26:01 11.8 C 8.31 g/m*3 11.8 C 0 km/h
533 13-01-2011 10:38:02 12.2 C 8.2 g/m*3 12.2 C 0 km/h
534 13-01-2011 10:50:01 12.3 C 8.25 g/m*3 12.3 C 0 km/h
535 13-01-2011 11:02:02 12.5 C 8.36 g/m*3 12.5 C 0 km/h
536 13-01-2011 11:14:02 12.3 C 8.25 g/m*3 12.3 C 0 km/h
537 13-01-2011 11:26:01 12.6 C 8.19 g/m*3 12.6 C 0 km/h
538 13-01-2011 11:38:01 12.5 C 8.25 g/m*3 12.5 C 0 km/h
539 13-01-2011 11:50:01 12.7 C 8.24 g/m*3 12.7 C 0 km/h
540 13-01-2011 12:02:01 12.6 C 8.3 g/m*3 12.6 C 0 km/h
541 13-01-2011 12:14:02 12.5 C 8.25 g/m*3 12.5 C 0 km/h
542 13-01-2011 12:26:01 12.4 C 8.3 g/m*3 12.4 C 0 km/h
543 13-01-2011 12:38:01 12.4 C 8.41 g/m*3 12.4 C 0 km/h
544 13-01-2011 12:50:01 12.4 C 8.3 g/m*3 12.4 C 0 km/h
545 13-01-2011 13:02:01 12.2 C 8.42 g/m*3 12.2 C 0 km/h
546 13-01-2011 13:14:01 12.2 C 8.42 g/m*3 12.2 C 0 km/h
547 13-01-2011 13:26:02 12.7 C 8.46 g/m*3 12.7 C 0 km/h
548 13-01-2011 13:38:01 12.7 C 8.35 g/m*3 12.7 C 0 km/h
549 13-01-2011 13:50:02 12.9 C 8.34 g/m*3 12.9 C 0 km/h
550 13-01-2011 14:02:01 13 C 8.28 g/m*3 13 C 0 km/h
Sensor: Nr:Datum:Temp:Abs-Feuchte:Windchill:Wind:
Aussen-T/F 551 13-01-2011 14:14:01 13 C 8.28 g/m*3 13 C 0 km/h
552 13-01-2011 14:26:02 13.2 C 8.27 g/m*3 13.2 C 0 km/h
553 13-01-2011 14:38:01 13.4 C 8.37 g/m*3 13.4 C 0 km/h
554 13-01-2011 14:50:01 13.3 C 8.2 g/m*3 13.3 C 0 km/h
555 13-01-2011 15:02:01 13.1 C 8.22 g/m*3 13.1 C 0 km/h
556 13-01-2011 15:14:01 13.2 C 8.27 g/m*3 13.2 C 0 km/h
557 13-01-2011 15:26:01 13.1 C 8.22 g/m*3 13.1 C 0 km/h
558 13-01-2011 15:38:02 13 C 8.28 g/m*3 13 C 0 km/h
559 13-01-2011 15:50:01 12.9 C 8.34 g/m*3 12.9 C 0 km/h
560 13-01-2011 16:02:02 12.9 C 8.45 g/m*3 12.9 C 0 km/h
561 13-01-2011 16:14:02 12.9 C 8.45 g/m*3 12.9 C 0 km/h
562 13-01-2011 16:26:01 13 C 8.39 g/m*3 13 C 0 km/h
563 13-01-2011 16:38:01 12.8 C 8.51 g/m*3 12.8 C 0 km/h
564 13-01-2011 16:50:01 12.9 C 8.57 g/m*3 12.9 C 0 km/h
565 13-01-2011 17:02:01 12.8 C 8.51 g/m*3 12.8 C 0 km/h
566 13-01-2011 17:14:02 12.9 C 8.57 g/m*3 12.9 C 0 km/h
567 13-01-2011 17:26:01 12.7 C 8.46 g/m*3 12.7 C 0 km/h
568 13-01-2011 17:38:01 12.9 C 8.57 g/m*3 12.9 C 0 km/h
569 13-01-2011 17:50:01 13 C 8.39 g/m*3 13 C 0 km/h
570 13-01-2011 18:02:01 13 C 8.39 g/m*3 13 C 0 km/h
571 13-01-2011 18:14:01 12.9 C 8.45 g/m*3 12.9 C 0 km/h
572 13-01-2011 18:26:02 12.7 C 8.35 g/m*3 12.7 C 0 km/h
573 13-01-2011 18:38:01 12.8 C 8.51 g/m*3 12.8 C 0 km/h
574 13-01-2011 18:50:02 12.8 C 8.4 g/m*3 12.8 C 0 km/h
575 13-01-2011 19:02:01 12.9 C 8.57 g/m*3 12.9 C 0 km/h
Sensor: Nr:Datum:Temp:Abs-Feuchte:Windchill:Wind:
Aussen-T/F 576 13-01-2011 19:14:01 12.8 C 8.51 g/m*3 12.8 C 0 km/h
577 13-01-2011 19:26:02 12.8 C 8.51 g/m*3 12.8 C 0 km/h
578 13-01-2011 19:38:02 12.8 C 8.51 g/m*3 12.8 C 0 km/h
579 13-01-2011 19:50:01 12.8 C 8.4 g/m*3 12.8 C 0 km/h
580 13-01-2011 20:02:02 12.8 C 8.51 g/m*3 12.8 C 0 km/h
581 13-01-2011 20:14:02 12.7 C 8.46 g/m*3 12.7 C 0 km/h
582 13-01-2011 20:26:01 12.6 C 8.52 g/m*3 12.6 C 0 km/h
583 13-01-2011 20:38:01 12.7 C 8.57 g/m*3 12.7 C 0 km/h
584 13-01-2011 20:50:01 12.7 C 8.57 g/m*3 12.7 C 0 km/h
585 13-01-2011 21:02:01 12.7 C 8.46 g/m*3 12.7 C 0 km/h
586 13-01-2011 21:14:01 12.7 C 8.46 g/m*3 12.7 C 0 km/h
587 13-01-2011 21:26:01 12.8 C 8.51 g/m*3 12.8 C 0 km/h
588 13-01-2011 21:38:01 13 C 8.39 g/m*3 13 C 0 km/h
589 13-01-2011 21:50:01 12.9 C 8.45 g/m*3 12.9 C 0 km/h
590 13-01-2011 22:02:01 12.9 C 8.45 g/m*3 12.9 C 0 km/h
591 13-01-2011 22:14:01 12.8 C 8.4 g/m*3 12.8 C 0 km/h
592 13-01-2011 22:26:01 12.8 C 8.29 g/m*3 12.8 C 0 km/h
593 13-01-2011 22:38:02 12.8 C 8.29 g/m*3 12.8 C 0 km/h
594 13-01-2011 22:50:01 12.8 C 8.29 g/m*3 12.8 C 0 km/h
595 13-01-2011 23:02:02 12.9 C 8.34 g/m*3 12.9 C 0 km/h
596 13-01-2011 23:14:02 12.7 C 8.24 g/m*3 12.7 C 0 km/h
597 13-01-2011 23:26:01 12.7 C 8.24 g/m*3 12.7 C 0 km/h
598 13-01-2011 23:38:02 12.7 C 8.24 g/m*3 12.7 C 0 km/h
599 13-01-2011 23:50:01 12.7 C 8.24 g/m*3 12.7 C 0 km/h
600 14-01-2011 00:02:02 12.7 C 8.24 g/m*3 12.7 C 0 km/h
Sensor: Nr:Datum:Temp:Abs-Feuchte:Windchill:Wind:
Aussen-T/F 601 14-01-2011 00:14:02 12.5 C 8.14 g/m*3 12.5 C 0 km/h
602 14-01-2011 00:26:01 12.4 C 8.09 g/m*3 12.4 C 0 km/h
603 14-01-2011 00:38:02 12.5 C 8.14 g/m*3 12.5 C 0 km/h
604 14-01-2011 00:50:01 12.7 C 8.13 g/m*3 12.7 C 0 km/h
605 14-01-2011 01:02:02 12.5 C 8.14 g/m*3 12.5 C 0 km/h
606 14-01-2011 01:14:02 12.4 C 8.09 g/m*3 12.4 C 0 km/h
607 14-01-2011 01:26:01 12.5 C 8.14 g/m*3 12.5 C 0 km/h
608 14-01-2011 01:38:02 12.6 C 8.08 g/m*3 12.6 C 0 km/h
609 14-01-2011 01:50:01 12.5 C 8.03 g/m*3 12.5 C 0 km/h
610 14-01-2011 02:02:02 12.4 C 7.98 g/m*3 12.4 C 0 km/h
611 14-01-2011 02:14:02 12.3 C 7.93 g/m*3 12.3 C 0 km/h
612 14-01-2011 02:26:01 12.3 C 7.93 g/m*3 12.3 C 0 km/h
613 14-01-2011 02:38:01 12.3 C 7.93 g/m*3 12.3 C 0 km/h
614 14-01-2011 02:50:01 12.4 C 7.98 g/m*3 12.4 C 0 km/h
615 14-01-2011 03:02:01 12.2 C 7.88 g/m*3 12.2 C 0 km/h
616 14-01-2011 03:14:01 12.4 C 7.98 g/m*3 12.4 C 0 km/h
617 14-01-2011 03:26:02 12.2 C 7.77 g/m*3 12.2 C 0 km/h
618 14-01-2011 03:38:01 12.2 C 7.77 g/m*3 12.2 C 0 km/h
619 14-01-2011 03:50:01 12.2 C 7.77 g/m*3 12.2 C 0 km/h
620 14-01-2011 04:02:02 12.2 C 7.77 g/m*3 12.2 C 0 km/h
621 14-01-2011 04:14:02 12.2 C 7.88 g/m*3 12.2 C 0 km/h
622 14-01-2011 04:26:01 12.4 C 7.87 g/m*3 12.4 C 0 km/h
623 14-01-2011 04:38:01 12.2 C 7.77 g/m*3 12.2 C 0 km/h
624 14-01-2011 04:50:01 12.2 C 7.77 g/m*3 12.2 C 0 km/h
625 14-01-2011 05:02:01 12.1 C 7.83 g/m*3 12.1 C 0 km/h
Sensor: Nr:Datum:Temp:Abs-Feuchte:Windchill:Wind:
Aussen-T/F 626 14-01-2011 05:14:01 12.1 C 7.83 g/m*3 12.1 C 0 km/h
627 14-01-2011 05:26:01 12.3 C 7.82 g/m*3 12.3 C 0 km/h
628 14-01-2011 05:38:01 12.5 C 7.81 g/m*3 12.5 C 0 km/h
629 14-01-2011 05:50:01 12.3 C 7.71 g/m*3 12.3 C 0 km/h
630 14-01-2011 06:02:01 12.4 C 7.65 g/m*3 12.4 C 0 km/h
631 14-01-2011 06:14:01 12.6 C 7.63 g/m*3 12.6 C 0 km/h
632 14-01-2011 06:26:02 12.5 C 7.59 g/m*3 12.5 C 0 km/h
633 14-01-2011 06:38:01 12.7 C 7.57 g/m*3 12.7 C 0 km/h
634 14-01-2011 06:50:02 12.6 C 7.63 g/m*3 12.6 C 0 km/h
635 14-01-2011 07:02:01 12.3 C 7.6 g/m*3 12.3 C 0 km/h
636 14-01-2011 07:14:01 12.3 C 7.49 g/m*3 12.3 C 0 km/h
637 14-01-2011 07:26:02 12.4 C 7.43 g/m*3 12.4 C 0 km/h
638 14-01-2011 07:38:01 12.2 C 7.12 g/m*3 12.2 C 0 km/h
639 14-01-2011 07:50:01 12.3 C 7.17 g/m*3 12.3 C 0 km/h
640 14-01-2011 08:02:01 12.1 C 7.08 g/m*3 12.1 C 0 km/h
641 14-01-2011 08:14:01 12.2 C 7.01 g/m*3 12.2 C 0 km/h
642 14-01-2011 08:26:02 11.7 C 7.01 g/m*3 11.7 C 0 km/h
643 14-01-2011 08:38:01 11.2 C 6.89 g/m*3 11.2 C 0 km/h
644 14-01-2011 08:50:02 11.1 C 6.95 g/m*3 11.1 C 0 km/h
645 14-01-2011 09:02:01 11.2 C 6.99 g/m*3 11.2 C 0 km/h
646 14-01-2011 09:14:01 11.4 C 6.77 g/m*3 11.4 C 0 km/h
647 14-01-2011 09:26:01 11.6 C 6.86 g/m*3 11.6 C 0 km/h
648 14-01-2011 09:38:01 11.6 C 6.76 g/m*3 11.6 C 0 km/h
649 14-01-2011 09:50:01 11.5 C 6.82 g/m*3 11.5 C 0 km/h
650 14-01-2011 10:02:01 11.8 C 6.84 g/m*3 11.8 C 0 km/h
Sensor: Nr:Datum:Temp:Abs-Feuchte:Windchill:Wind:
Aussen-T/F 651 14-01-2011 10:14:01 11.9 C 6.78 g/m*3 11.9 C 0 km/h
652 14-01-2011 10:26:01 11.9 C 6.78 g/m*3 11.9 C 0 km/h
653 14-01-2011 10:38:02 11.3 C 6.53 g/m*3 11.3 C 0 km/h
654 14-01-2011 10:50:01 11.8 C 6.63 g/m*3 11.8 C 0 km/h
655 14-01-2011 11:02:02 12 C 6.61 g/m*3 12 C 0 km/h
656 14-01-2011 11:14:02 11.9 C 6.67 g/m*3 11.9 C 0 km/h
657 14-01-2011 11:26:01 12 C 6.61 g/m*3 12 C 0 km/h
658 14-01-2011 11:38:02 12 C 6.61 g/m*3 12 C 0 km/h
659 14-01-2011 11:50:01 12.2 C 6.58 g/m*3 12.2 C 0 km/h
660 14-01-2011 12:02:01 12 C 6.5 g/m*3 12 C 0 km/h
661 14-01-2011 12:14:02 12.2 C 6.58 g/m*3 12.2 C 0 km/h
662 14-01-2011 12:26:01 12.3 C 6.52 g/m*3 12.3 C 0 km/h
663 14-01-2011 12:38:01 12.2 C 6.58 g/m*3 12.2 C 0 km/h
664 14-01-2011 12:50:01 12 C 6.5 g/m*3 12 C 0 km/h
665 14-01-2011 13:02:01 12 C 6.61 g/m*3 12 C 0 km/h
666 14-01-2011 13:14:01 12 C 6.71 g/m*3 12 C 0 km/h
667 14-01-2011 13:26:02 12 C 6.61 g/m*3 12 C 0 km/h
668 14-01-2011 13:38:01 12 C 6.61 g/m*3 12 C 0 km/h
669 14-01-2011 13:50:02 12 C 6.61 g/m*3 12 C 0 km/h
670 14-01-2011 14:02:01 11.8 C 6.74 g/m*3 11.8 C 0 km/h
671 14-01-2011 14:14:01 11.7 C 6.8 g/m*3 11.7 C 0 km/h
672 14-01-2011 14:26:02 11.6 C 6.86 g/m*3 11.6 C 0 km/h
673 14-01-2011 14:38:01 11.5 C 6.82 g/m*3 11.5 C 0 km/h
674 14-01-2011 14:50:02 11.6 C 6.86 g/m*3 11.6 C 0 km/h
675 14-01-2011 15:02:01 11.8 C 6.74 g/m*3 11.8 C 0 km/h
Sensor: Nr:Datum:Temp:Abs-Feuchte:Windchill:Wind:
Aussen-T/F 676 14-01-2011 15:14:01 12 C 6.61 g/m*3 12 C 0 km/h
677 14-01-2011 15:26:01 12.2 C 6.47 g/m*3 12.2 C 0 km/h
678 14-01-2011 15:38:02 12.4 C 6.45 g/m*3 12.4 C 0 km/h
679 14-01-2011 15:50:01 12.2 C 6.47 g/m*3 12.2 C 0 km/h
680 14-01-2011 16:02:02 12.2 C 6.37 g/m*3 12.2 C 0 km/h
681 14-01-2011 16:14:02 12.1 C 6.43 g/m*3 12.1 C 0 km/h
682 14-01-2011 16:26:01 12 C 6.39 g/m*3 12 C 0 km/h
683 14-01-2011 16:38:01 11.9 C 6.46 g/m*3 11.9 C 0 km/h
684 14-01-2011 16:50:01 11.6 C 6.34 g/m*3 11.6 C 0 km/h
685 14-01-2011 17:02:01 11.6 C 6.34 g/m*3 11.6 C 0 km/h
686 14-01-2011 17:14:01 11.6 C 6.44 g/m*3 11.6 C 0 km/h
687 14-01-2011 17:26:01 11.5 C 6.3 g/m*3 11.5 C 0 km/h
688 14-01-2011 17:38:01 11.5 C 6.3 g/m*3 11.5 C 0 km/h
689 14-01-2011 17:50:01 11.4 C 6.26 g/m*3 11.4 C 0 km/h
690 14-01-2011 18:02:01 11.2 C 6.28 g/m*3 11.2 C 0 km/h
691 14-01-2011 18:14:01 11 C 6.31 g/m*3 11 C 0 km/h
692 14-01-2011 18:26:02 11.3 C 6.32 g/m*3 11.3 C 0 km/h
693 14-01-2011 18:38:01 10.8 C 6.33 g/m*3 10.8 C 0 km/h
694 14-01-2011 18:50:02 10.9 C 6.37 g/m*3 10.9 C 0 km/h
695 14-01-2011 19:02:01 10.8 C 6.33 g/m*3 10.8 C 0 km/h
696 14-01-2011 19:14:01 10.7 C 6.29 g/m*3 10.7 C 0 km/h
697 14-01-2011 19:26:01 11 C 6.21 g/m*3 11 C 0 km/h
698 14-01-2011 19:38:01 11.3 C 6.22 g/m*3 11.3 C 0 km/h
699 14-01-2011 19:50:01 11.9 C 6.14 g/m*3 11.9 C 0 km/h
700 14-01-2011 20:02:01 11.9 C 6.04 g/m*3 11.9 C 0 km/h
Sensor: Nr:Datum:Temp:Abs-Feuchte:Windchill:Wind:
Aussen-T/F 701 14-01-2011 20:14:01 11.8 C 6.1 g/m*3 11.8 C 0 km/h
702 14-01-2011 20:26:01 11.8 C 6.1 g/m*3 11.8 C 0 km/h
703 14-01-2011 20:38:02 11.5 C 6.09 g/m*3 11.5 C 0 km/h
704 14-01-2011 20:50:01 11.4 C 6.06 g/m*3 11.4 C 0 km/h
705 14-01-2011 21:02:02 11.4 C 6.06 g/m*3 11.4 C 0 km/h
706 14-01-2011 21:14:02 11.4 C 5.95 g/m*3 11.4 C 0 km/h
707 14-01-2011 21:26:01 11.4 C 6.06 g/m*3 11.4 C 0 km/h
708 14-01-2011 21:38:01 11.4 C 5.95 g/m*3 11.4 C 0 km/h
709 14-01-2011 21:50:01 11.4 C 6.06 g/m*3 11.4 C 0 km/h
710 14-01-2011 22:04:03 11.2 C 6.08 g/m*3 11.2 C 0 km/h
711 14-01-2011 22:16:03 11.1 C 6.14 g/m*3 11.1 C 0 km/h
712 14-01-2011 22:28:03 11.1 C 6.25 g/m*3 11.1 C 0 km/h
713 14-01-2011 22:40:03 10.6 C 6.34 g/m*3 10.6 C 0 km/h
714 14-01-2011 22:52:03 10.1 C 6.43 g/m*3 10.1 C 0 km/h
715 14-01-2011 23:04:03 10 C 6.58 g/m*3 10 C 0 km/h
716 14-01-2011 23:16:03 9.5 C 6.74 g/m*3 9.5 C 0 km/h
717 14-01-2011 23:28:03 9.1 C 6.92 g/m*3 9.1 C 0 km/h
718 14-01-2011 23:40:03 9.1 C 6.92 g/m*3 9.1 C 0 km/h
719 14-01-2011 23:52:03 8.5 C 6.66 g/m*3 8.5 C 0 km/h
720 15-01-2011 00:04:03 8.3 C 6.74 g/m*3 8.3 C 0 km/h
721 15-01-2011 00:16:03 8 C 6.7 g/m*3 8 C 0 km/h
722 15-01-2011 00:28:03 8.5 C 6.74 g/m*3 8.5 C 0 km/h
723 15-01-2011 00:40:03 8.1 C 6.49 g/m*3 8.1 C 0 km/h
724 15-01-2011 00:52:03 8.2 C 6.53 g/m*3 8.2 C 0 km/h
725 15-01-2011 01:04:03 8.1 C 6.49 g/m*3 8.1 C 0 km/h
Sensor: Nr:Datum:Temp:Abs-Feuchte:Windchill:Wind:
Aussen-T/F 726 15-01-2011 01:16:03 8.3 C 6.49 g/m*3 8.3 C 0 km/h
727 15-01-2011 01:28:03 8.5 C 6.32 g/m*3 8.5 C 0 km/h
728 15-01-2011 01:40:03 8.2 C 6.36 g/m*3 8.2 C 0 km/h
729 15-01-2011 01:52:03 8 C 6.37 g/m*3 8 C 0 km/h
730 15-01-2011 02:04:04 8.4 C 6.45 g/m*3 8.4 C 0 km/h
731 15-01-2011 02:16:04 8.3 C 6.41 g/m*3 8.3 C 0 km/h
732 15-01-2011 02:28:04 8.1 C 6.32 g/m*3 8.1 C 0 km/h
733 15-01-2011 02:40:04 7.6 C 6.36 g/m*3 7.6 C 0 km/h
734 15-01-2011 02:52:04 7.8 C 6.61 g/m*3 7.8 C 0 km/h
735 15-01-2011 03:04:04 8 C 6.45 g/m*3 8 C 0 km/h
736 15-01-2011 03:16:04 8.1 C 6.41 g/m*3 8.1 C 0 km/h
737 15-01-2011 03:28:04 8.4 C 6.62 g/m*3 8.4 C 0 km/h
738 15-01-2011 03:40:04 8.1 C 6.41 g/m*3 8.1 C 0 km/h
739 15-01-2011 03:52:04 8 C 6.45 g/m*3 8 C 0 km/h
740 15-01-2011 04:04:04 7.8 C 6.45 g/m*3 7.8 C 0 km/h
741 15-01-2011 04:16:04 8 C 6.53 g/m*3 8 C 0 km/h
742 15-01-2011 04:28:04 8.2 C 6.36 g/m*3 8.2 C 0 km/h
743 15-01-2011 04:40:04 8.7 C 6.4 g/m*3 8.7 C 0 km/h
744 15-01-2011 04:52:04 8.4 C 6.28 g/m*3 8.4 C 0 km/h
745 15-01-2011 05:04:04 8.3 C 6.15 g/m*3 8.3 C 0 km/h
746 15-01-2011 05:16:04 8.1 C 6.07 g/m*3 8.1 C 0 km/h
747 15-01-2011 05:28:04 7.7 C 6.24 g/m*3 7.7 C 0 km/h
748 15-01-2011 05:40:04 8 C 6.12 g/m*3 8 C 0 km/h
749 15-01-2011 05:52:04 7.7 C 6.08 g/m*3 7.7 C 0 km/h
750 15-01-2011 06:04:05 7.5 C 6.24 g/m*3 7.5 C 0 km/h
Sensor: Nr:Datum:Temp:Abs-Feuchte:Windchill:Wind:
Aussen-T/F 751 15-01-2011 06:16:05 6.9 C 6.24 g/m*3 6.9 C 0 km/h
752 15-01-2011 06:28:05 7.3 C 6.24 g/m*3 7.3 C 0 km/h
753 15-01-2011 06:40:05 7.6 C 6.2 g/m*3 7.6 C 0 km/h
754 15-01-2011 06:52:05 7.9 C 6.16 g/m*3 7.9 C 0 km/h
755 15-01-2011 07:04:05 7.1 C 6.01 g/m*3 7.1 C 0 km/h
756 15-01-2011 07:16:05 7.3 C 6.24 g/m*3 7.3 C 0 km/h
757 15-01-2011 07:28:05 7 C 6.2 g/m*3 7 C 0 km/h
758 15-01-2011 07:40:05 7 C 6.12 g/m*3 7 C 0 km/h
759 15-01-2011 07:52:05 7 C 6.12 g/m*3 7 C 0 km/h
760 15-01-2011 08:04:02 7 C 6.12 g/m*3 7 C 0 km/h
761 15-01-2011 08:16:03 7.1 C 6.08 g/m*3 7.1 C 0 km/h
762 15-01-2011 08:28:03 8 C 6.28 g/m*3 8 C 0 km/h
763 15-01-2011 08:40:02 8 C 6.04 g/m*3 8 C 0 km/h
764 15-01-2011 08:52:03 8.3 C 6.15 g/m*3 8.3 C 0 km/h
765 15-01-2011 09:04:02 8.2 C 5.95 g/m*3 8.2 C 0 km/h
766 15-01-2011 09:16:02 7.9 C 5.91 g/m*3 7.9 C 0 km/h
767 15-01-2011 09:28:02 8.2 C 6.03 g/m*3 8.2 C 0 km/h
768 15-01-2011 09:40:02 8.5 C 5.98 g/m*3 8.5 C 0 km/h
769 15-01-2011 09:52:02 8.7 C 6.05 g/m*3 8.7 C 0 km/h
770 15-01-2011 10:04:01 9.1 C 5.94 g/m*3 9.1 C 0 km/h
771 15-01-2011 10:16:02 8.9 C 5.96 g/m*3 8.9 C 0 km/h
772 15-01-2011 10:28:02 9 C 5.91 g/m*3 9 C 0 km/h
773 15-01-2011 10:40:02 9.1 C 5.86 g/m*3 9.1 C 0 km/h
774 15-01-2011 10:52:02 9.2 C 5.89 g/m*3 9.2 C 0 km/h
775 15-01-2011 11:04:02 9.4 C 5.97 g/m*3 9.4 C 0 km/h
Sensor: Nr:Datum:Temp:Abs-Feuchte:Windchill:Wind:
Aussen-T/F 776 15-01-2011 11:16:02 9.5 C 6.01 g/m*3 9.5 C 0 km/h
777 15-01-2011 11:28:02 10.1 C 5.96 g/m*3 10.1 C 0 km/h
778 15-01-2011 11:40:02 10.1 C 5.77 g/m*3 10.1 C 0 km/h
779 15-01-2011 11:52:02 10.2 C 5.71 g/m*3 10.2 C 0 km/h
780 15-01-2011 12:04:02 10.2 C 5.8 g/m*3 10.2 C 0 km/h
781 15-01-2011 12:16:03 10.2 C 5.71 g/m*3 10.2 C 0 km/h
782 15-01-2011 12:28:03 10.3 C 5.75 g/m*3 10.3 C 0 km/h
783 15-01-2011 12:40:02 10.2 C 5.71 g/m*3 10.2 C 0 km/h
784 15-01-2011 12:52:01 10.1 C 5.67 g/m*3 10.1 C 0 km/h
785 15-01-2011 13:04:01 10.1 C 5.58 g/m*3 10.1 C 0 km/h
786 15-01-2011 13:16:02 10 C 5.64 g/m*3 10 C 0 km/h
787 15-01-2011 13:28:02 10 C 5.54 g/m*3 10 C 0 km/h
788 15-01-2011 13:40:01 10 C 5.54 g/m*3 10 C 0 km/h
789 15-01-2011 13:52:01 10.1 C 5.58 g/m*3 10.1 C 0 km/h
790 15-01-2011 14:04:01 10.2 C 5.61 g/m*3 10.2 C 0 km/h
791 15-01-2011 14:16:02 10 C 5.54 g/m*3 10 C 0 km/h
792 15-01-2011 14:28:02 10 C 5.54 g/m*3 10 C 0 km/h
793 15-01-2011 14:40:01 10 C 5.54 g/m*3 10 C 0 km/h
794 15-01-2011 14:52:01 10 C 5.45 g/m*3 10 C 0 km/h
795 15-01-2011 15:04:01 9.9 C 5.42 g/m*3 9.9 C 0 km/h
796 15-01-2011 15:16:02 9.8 C 5.57 g/m*3 9.8 C 0 km/h
797 15-01-2011 15:28:02 9.6 C 5.5 g/m*3 9.6 C 0 km/h
798 15-01-2011 15:40:01 9.7 C 5.53 g/m*3 9.7 C 0 km/h
799 15-01-2011 15:52:02 9.1 C 5.59 g/m*3 9.1 C 0 km/h
800 15-01-2011 16:04:02 8.8 C 5.83 g/m*3 8.8 C 0 km/h
Sensor: Nr:Datum:Temp:Abs-Feuchte:Windchill:Wind:
Aussen-T/F 801 15-01-2011 16:16:03 8.7 C 5.71 g/m*3 8.7 C 0 km/h
802 15-01-2011 16:28:03 8.9 C 5.69 g/m*3 8.9 C 0 km/h
803 15-01-2011 16:40:02 8.9 C 5.69 g/m*3 8.9 C 0 km/h
804 15-01-2011 16:52:02 9.2 C 5.63 g/m*3 9.2 C 0 km/h
805 15-01-2011 17:04:01 8.7 C 5.79 g/m*3 8.7 C 0 km/h
806 15-01-2011 17:16:01 9.1 C 5.59 g/m*3 9.1 C 0 km/h
807 15-01-2011 17:28:01 9.2 C 5.54 g/m*3 9.2 C 0 km/h
808 15-01-2011 17:40:02 9 C 5.64 g/m*3 9 C 0 km/h
809 15-01-2011 17:52:03 9.1 C 5.68 g/m*3 9.1 C 0 km/h
810 15-01-2011 18:04:03 9.2 C 5.71 g/m*3 9.2 C 0 km/h
811 15-01-2011 18:16:01 9.1 C 5.68 g/m*3 9.1 C 0 km/h
812 15-01-2011 18:28:01 9 C 5.82 g/m*3 9 C 0 km/h
813 15-01-2011 18:40:02 9 C 5.82 g/m*3 9 C 0 km/h
814 15-01-2011 18:52:02 8.6 C 5.84 g/m*3 8.6 C 0 km/h
815 15-01-2011 19:04:02 9.1 C 5.77 g/m*3 9.1 C 0 km/h
816 15-01-2011 19:16:02 9.3 C 5.66 g/m*3 9.3 C 0 km/h
817 15-01-2011 19:28:02 9.1 C 5.59 g/m*3 9.1 C 0 km/h
818 15-01-2011 19:40:02 9.3 C 5.75 g/m*3 9.3 C 0 km/h
819 15-01-2011 19:52:01 9.1 C 5.68 g/m*3 9.1 C 0 km/h
820 15-01-2011 20:04:01 9.4 C 5.7 g/m*3 9.4 C 0 km/h
821 15-01-2011 20:16:02 9.1 C 5.59 g/m*3 9.1 C 0 km/h
822 15-01-2011 20:28:02 8.6 C 5.67 g/m*3 8.6 C 0 km/h
823 15-01-2011 20:40:01 8.9 C 5.69 g/m*3 8.9 C 0 km/h
824 15-01-2011 20:52:01 8.6 C 5.76 g/m*3 8.6 C 0 km/h
825 15-01-2011 21:04:01 8.2 C 5.53 g/m*3 8.2 C 0 km/h
Sensor: Nr:Datum:Temp:Abs-Feuchte:Windchill:Wind:
Aussen-T/F 826 15-01-2011 21:16:02 8.1 C 5.57 g/m*3 8.1 C 0 km/h
827 15-01-2011 21:28:02 8 C 5.54 g/m*3 8 C 0 km/h
828 15-01-2011 21:40:01 7.8 C 5.71 g/m*3 7.8 C 0 km/h
829 15-01-2011 21:52:01 8.1 C 5.74 g/m*3 8.1 C 0 km/h
830 15-01-2011 22:04:01 8.3 C 5.82 g/m*3 8.3 C 0 km/h
831 15-01-2011 22:16:02 8.5 C 5.98 g/m*3 8.5 C 0 km/h
832 15-01-2011 22:28:02 8.9 C 5.96 g/m*3 8.9 C 0 km/h
833 15-01-2011 22:41:03 8.6 C 5.84 g/m*3 8.6 C 0 km/h
834 15-01-2011 22:53:03 8.7 C 5.88 g/m*3 8.7 C 0 km/h
835 15-01-2011 23:05:03 8.5 C 5.89 g/m*3 8.5 C 0 km/h
836 15-01-2011 23:17:03 8.2 C 5.86 g/m*3 8.2 C 0 km/h
837 15-01-2011 23:29:03 8.7 C 5.88 g/m*3 8.7 C 0 km/h
838 15-01-2011 23:41:03 8.8 C 5.92 g/m*3 8.8 C 0 km/h
839 15-01-2011 23:53:03 8.9 C 5.87 g/m*3 8.9 C 0 km/h
840 16-01-2011 00:05:03 8.7 C 5.97 g/m*3 8.7 C 0 km/h
841 16-01-2011 00:17:03 8.8 C 5.92 g/m*3 8.8 C 0 km/h
842 16-01-2011 00:29:03 9 C 5.82 g/m*3 9 C 0 km/h
843 16-01-2011 00:41:03 9 C 5.73 g/m*3 9 C 0 km/h
844 16-01-2011 00:53:04 9 C 5.73 g/m*3 9 C 0 km/h
845 16-01-2011 01:05:04 8.5 C 5.64 g/m*3 8.5 C 0 km/h
846 16-01-2011 01:17:04 8.6 C 5.76 g/m*3 8.6 C 0 km/h
847 16-01-2011 01:29:04 8 C 5.7 g/m*3 8 C 0 km/h
848 16-01-2011 01:41:04 8 C 5.7 g/m*3 8 C 0 km/h
849 16-01-2011 01:53:04 8.1 C 5.66 g/m*3 8.1 C 0 km/h
850 16-01-2011 02:05:04 8.1 C 5.66 g/m*3 8.1 C 0 km/h
Sensor: Nr:Datum:Temp:Abs-Feuchte:Windchill:Wind:
Aussen-T/F 851 16-01-2011 02:17:04 7.8 C 5.71 g/m*3 7.8 C 0 km/h
852 16-01-2011 02:29:04 7.8 C 5.79 g/m*3 7.8 C 0 km/h
853 16-01-2011 02:41:04 7.8 C 5.88 g/m*3 7.8 C 0 km/h
854 16-01-2011 02:53:04 8.3 C 5.82 g/m*3 8.3 C 0 km/h
855 16-01-2011 03:05:04 8.4 C 5.77 g/m*3 8.4 C 0 km/h
856 16-01-2011 03:17:04 8.3 C 5.65 g/m*3 8.3 C 0 km/h
857 16-01-2011 03:29:04 8.2 C 5.69 g/m*3 8.2 C 0 km/h
858 16-01-2011 03:41:04 7.8 C 5.71 g/m*3 7.8 C 0 km/h
859 16-01-2011 03:53:04 8 C 5.7 g/m*3 8 C 0 km/h
860 16-01-2011 04:05:04 7.9 C 5.75 g/m*3 7.9 C 0 km/h
861 16-01-2011 04:17:04 8.2 C 5.78 g/m*3 8.2 C 0 km/h
862 16-01-2011 04:29:04 8.5 C 5.72 g/m*3 8.5 C 0 km/h
863 16-01-2011 04:41:04 8.4 C 5.77 g/m*3 8.4 C 0 km/h
864 16-01-2011 04:53:05 8.1 C 5.74 g/m*3 8.1 C 0 km/h
865 16-01-2011 05:05:05 7.9 C 5.83 g/m*3 7.9 C 0 km/h
866 16-01-2011 05:17:05 7.3 C 5.85 g/m*3 7.3 C 0 km/h
867 16-01-2011 05:29:05 6.8 C 5.97 g/m*3 6.8 C 0 km/h
868 16-01-2011 05:41:05 7 C 6.12 g/m*3 7 C 0 km/h
869 16-01-2011 05:53:05 6.8 C 6.12 g/m*3 6.8 C 0 km/h
870 16-01-2011 06:05:05 7 C 6.2 g/m*3 7 C 0 km/h
871 16-01-2011 06:17:05 7.1 C 6.16 g/m*3 7.1 C 0 km/h
872 16-01-2011 06:29:05 7.5 C 6.16 g/m*3 7.5 C 0 km/h
873 16-01-2011 06:41:05 7 C 5.89 g/m*3 7 C 0 km/h
874 16-01-2011 06:53:05 6.7 C 6 g/m*3 6.7 C 0 km/h
875 16-01-2011 07:05:05 7.5 C 6.16 g/m*3 7.5 C 0 km/h
Sensor: Nr:Datum:Temp:Abs-Feuchte:Windchill:Wind:
Aussen-T/F 876 16-01-2011 07:17:05 7.8 C 6.12 g/m*3 7.8 C 0 km/h
877 16-01-2011 07:29:05 7.9 C 6.08 g/m*3 7.9 C 0 km/h
878 16-01-2011 07:41:05 7.8 C 6.04 g/m*3 7.8 C 0 km/h
879 16-01-2011 07:53:05 8.4 C 5.94 g/m*3 8.4 C 0 km/h
880 16-01-2011 08:05:05 8.2 C 5.86 g/m*3 8.2 C 0 km/h
881 16-01-2011 08:17:05 8.3 C 5.9 g/m*3 8.3 C 0 km/h
882 16-01-2011 08:29:05 8.3 C 5.82 g/m*3 8.3 C 0 km/h
883 16-01-2011 08:41:05 8.1 C 5.82 g/m*3 8.1 C 0 km/h
884 16-01-2011 08:53:05 8.2 C 5.95 g/m*3 8.2 C 0 km/h
885 16-01-2011 09:05:02 8.3 C 5.98 g/m*3 8.3 C 0 km/h
886 16-01-2011 09:17:02 8 C 5.87 g/m*3 8 C 0 km/h
887 16-01-2011 09:29:02 8 C 5.87 g/m*3 8 C 0 km/h
888 16-01-2011 09:41:02 8 C 5.87 g/m*3 8 C 0 km/h
889 16-01-2011 09:53:01 7.9 C 5.91 g/m*3 7.9 C 0 km/h
890 16-01-2011 10:05:02 7.9 C 5.91 g/m*3 7.9 C 0 km/h
891 16-01-2011 10:17:01 7.9 C 5.91 g/m*3 7.9 C 0 km/h
892 16-01-2011 10:29:01 7.9 C 5.91 g/m*3 7.9 C 0 km/h
893 16-01-2011 10:41:01 8 C 5.95 g/m*3 8 C 0 km/h
894 16-01-2011 10:53:01 8.2 C 5.86 g/m*3 8.2 C 0 km/h
895 16-01-2011 11:05:02 8.1 C 5.91 g/m*3 8.1 C 0 km/h
896 16-01-2011 11:17:01 8.1 C 5.91 g/m*3 8.1 C 0 km/h
897 16-01-2011 11:29:01 8.3 C 5.98 g/m*3 8.3 C 0 km/h
898 16-01-2011 11:41:02 8.6 C 6.1 g/m*3 8.6 C 0 km/h
899 16-01-2011 11:53:01 8.7 C 6.05 g/m*3 8.7 C 0 km/h
900 16-01-2011 12:05:02 8.6 C 6.1 g/m*3 8.6 C 0 km/h
Sensor: Nr:Datum:Temp:Abs-Feuchte:Windchill:Wind:
Aussen-T/F 901 16-01-2011 12:17:01 8.6 C 6.19 g/m*3 8.6 C 0 km/h
902 16-01-2011 12:29:01 8.6 C 6.19 g/m*3 8.6 C 0 km/h
903 16-01-2011 12:41:02 8.7 C 6.14 g/m*3 8.7 C 0 km/h
904 16-01-2011 12:53:01 8.7 C 6.14 g/m*3 8.7 C 0 km/h
905 16-01-2011 13:05:02 8.9 C 6.22 g/m*3 8.9 C 0 km/h
906 16-01-2011 13:17:02 8.9 C 6.22 g/m*3 8.9 C 0 km/h
907 16-01-2011 13:29:02 8.8 C 6.18 g/m*3 8.8 C 0 km/h
908 16-01-2011 13:41:01 8.7 C 6.14 g/m*3 8.7 C 0 km/h
909 16-01-2011 13:53:02 8.8 C 6.18 g/m*3 8.8 C 0 km/h
910 16-01-2011 14:05:01 8.6 C 6.1 g/m*3 8.6 C 0 km/h
911 16-01-2011 14:17:02 7.8 C 6.04 g/m*3 7.8 C 0 km/h
912 16-01-2011 14:29:02 7.5 C 6.24 g/m*3 7.5 C 0 km/h
913 16-01-2011 14:41:01 8.7 C 6.57 g/m*3 8.7 C 0 km/h
914 16-01-2011 14:53:02 9.7 C 6.36 g/m*3 9.7 C 0 km/h
915 16-01-2011 15:05:01 9.9 C 6.26 g/m*3 9.9 C 0 km/h
916 16-01-2011 15:17:02 10 C 6.11 g/m*3 10 C 0 km/h
917 16-01-2011 15:29:02 10 C 6.11 g/m*3 10 C 0 km/h
918 16-01-2011 15:41:01 9.9 C 6.26 g/m*3 9.9 C 0 km/h
919 16-01-2011 15:53:02 9.8 C 6.4 g/m*3 9.8 C 0 km/h
920 16-01-2011 16:05:02 9.3 C 6.38 g/m*3 9.3 C 0 km/h
921 16-01-2011 16:17:02 8.7 C 6.4 g/m*3 8.7 C 0 km/h
922 16-01-2011 16:29:02 8 C 6.28 g/m*3 8 C 0 km/h
923 16-01-2011 16:41:02 7.4 C 6.36 g/m*3 7.4 C 0 km/h
924 16-01-2011 16:53:02 6.8 C 6.27 g/m*3 6.8 C 0 km/h
925 16-01-2011 17:05:01 6.3 C 6.14 g/m*3 6.3 C 0 km/h
Sensor: Nr:Datum:Temp:Abs-Feuchte:Windchill:Wind:
Aussen-T/F 926 16-01-2011 17:17:02 6.2 C 6.18 g/m*3 6.2 C 0 km/h
927 16-01-2011 17:29:02 6 C 6.17 g/m*3 6 C 0 km/h
928 16-01-2011 17:41:02 5.6 C 6.08 g/m*3 5.6 C 0 km/h
929 16-01-2011 17:53:02 5.5 C 6.11 g/m*3 5.5 C 0 km/h
930 16-01-2011 18:05:03 5.1 C 5.95 g/m*3 5.1 C 0 km/h
931 16-01-2011 18:17:02 5 C 5.91 g/m*3 5 C 0 km/h
932 16-01-2011 18:29:02 4.8 C 5.9 g/m*3 4.8 C 0 km/h
933 16-01-2011 18:41:02 4.7 C 5.93 g/m*3 4.7 C 0 km/h
934 16-01-2011 18:53:02 4.6 C 5.89 g/m*3 4.6 C 0 km/h
935 16-01-2011 19:05:01 4.5 C 5.85 g/m*3 4.5 C 0 km/h
936 16-01-2011 19:17:02 4.4 C 5.81 g/m*3 4.4 C 0 km/h
937 16-01-2011 19:29:03 4.4 C 5.81 g/m*3 4.4 C 0 km/h
938 16-01-2011 19:41:01 3.9 C 5.68 g/m*3 3.9 C 0 km/h
939 16-01-2011 19:53:02 3.9 C 5.68 g/m*3 3.9 C 0 km/h
940 16-01-2011 20:05:02 3.4 C 5.5 g/m*3 3.4 C 0 km/h
941 16-01-2011 20:17:02 3.7 C 5.61 g/m*3 3.7 C 0 km/h
942 16-01-2011 20:29:02 3.5 C 5.53 g/m*3 3.5 C 0 km/h
943 16-01-2011 20:41:03 2.9 C 5.37 g/m*3 2.9 C 0 km/h
944 16-01-2011 20:53:02 2.8 C 5.34 g/m*3 2.8 C 0 km/h
945 16-01-2011 21:05:01 2.7 C 5.3 g/m*3 2.7 C 0 km/h
946 16-01-2011 21:17:02 2.2 C 5.13 g/m*3 2.2 C 0 km/h
947 16-01-2011 21:29:02 2.7 C 5.3 g/m*3 2.7 C 0 km/h
948 16-01-2011 21:41:02 2.2 C 5.13 g/m*3 2.2 C 0 km/h
949 16-01-2011 21:53:02 2.2 C 5.13 g/m*3 2.2 C 0 km/h
950 16-01-2011 22:06:04 1.8 C 5.04 g/m*3 1.8 C 0 km/h
Sensor: Nr:Datum:Temp:Abs-Feuchte:Windchill:Wind:
Aussen-T/F 951 16-01-2011 22:18:04 2.8 C 5.4 g/m*3 2.8 C 0 km/h
952 16-01-2011 22:30:04 1.9 C 5.08 g/m*3 1.9 C 0 km/h
953 16-01-2011 22:42:04 2.1 C 5.09 g/m*3 2.1 C 0 km/h
954 16-01-2011 22:54:04 2.2 C 5.18 g/m*3 2.2 C 0 km/h
955 16-01-2011 23:06:04 2.1 C 5.15 g/m*3 2.1 C 0 km/h
956 16-01-2011 23:18:04 1.5 C 4.94 g/m*3 1.5 C 0 km/h
957 16-01-2011 23:30:04 1.5 C 4.94 g/m*3 1.5 C 0 km/h
958 16-01-2011 23:42:04 1.1 C 4.81 g/m*3 1.1 C 0 km/h
959 16-01-2011 23:54:04 0.6 C 4.65 g/m*3 0.6 C 0 km/h
960 17-01-2011 00:06:04 1.2 C 4.84 g/m*3 1.2 C 0 km/h
961 17-01-2011 00:18:04 1.6 C 5.03 g/m*3 1.6 C 0 km/h
962 17-01-2011 00:30:04 1.4 C 4.91 g/m*3 1.4 C 0 km/h
963 17-01-2011 00:42:04 1.4 C 4.91 g/m*3 1.4 C 0 km/h
964 17-01-2011 00:54:04 1.4 C 4.96 g/m*3 1.4 C 0 km/h
965 17-01-2011 01:06:04 0.9 C 4.79 g/m*3 0.9 C 0 km/h
966 17-01-2011 01:18:04 1.2 C 4.89 g/m*3 1.2 C 0 km/h
967 17-01-2011 01:30:04 1.5 C 4.99 g/m*3 1.5 C 0 km/h
968 17-01-2011 01:42:04 1.3 C 4.93 g/m*3 1.3 C 0 km/h
969 17-01-2011 01:54:04 1 C 4.78 g/m*3 1 C 0 km/h
970 17-01-2011 02:06:04 0.7 C 4.73 g/m*3 0.7 C 0 km/h
971 17-01-2011 02:18:05 1.5 C 4.99 g/m*3 1.5 C 0 km/h
972 17-01-2011 02:30:05 1.3 C 4.93 g/m*3 1.3 C 0 km/h
973 17-01-2011 02:42:05 1 C 4.83 g/m*3 1 C 0 km/h
974 17-01-2011 02:54:05 1.1 C 4.86 g/m*3 1.1 C 0 km/h
975 17-01-2011 03:06:05 1.4 C 4.96 g/m*3 1.4 C 0 km/h
Sensor: Nr:Datum:Temp:Abs-Feuchte:Windchill:Wind:
Aussen-T/F 976 17-01-2011 03:18:05 1.5 C 4.99 g/m*3 1.5 C 0 km/h
977 17-01-2011 03:30:05 0.9 C 4.85 g/m*3 0.9 C 0 km/h
978 17-01-2011 03:42:05 0.9 C 4.85 g/m*3 0.9 C 0 km/h
979 17-01-2011 03:54:05 0.5 C 4.71 g/m*3 0.5 C 0 km/h
980 17-01-2011 04:06:05 0.2 C 4.57 g/m*3 0.2 C 0 km/h
981 17-01-2011 04:18:05 -0.1 C 4.47 g/m*3 -0.1 C 0 km/h
982 17-01-2011 04:30:05 -0.3 C 4.41 g/m*3 -0.3 C 0 km/h
983 17-01-2011 04:42:05 0.1 C 4.54 g/m*3 0.1 C 0 km/h
984 17-01-2011 04:54:05 -0.1 C 4.47 g/m*3 -0.1 C 0 km/h
985 17-01-2011 05:06:05 0.6 C 4.75 g/m*3 0.6 C 0 km/h
986 17-01-2011 05:18:05 0.5 C 4.71 g/m*3 0.5 C 0 km/h
987 17-01-2011 05:30:05 -0.2 C 4.44 g/m*3 -0.2 C 0 km/h
988 17-01-2011 05:42:05 -0.5 C 4.35 g/m*3 -0.5 C 0 km/h
989 17-01-2011 05:54:05 0 C 4.51 g/m*3 0 C 0 km/h
990 17-01-2011 06:06:05 -0.3 C 4.41 g/m*3 -0.3 C 0 km/h
991 17-01-2011 06:18:06 -0.3 C 4.41 g/m*3 -0.3 C 0 km/h
992 17-01-2011 06:30:06 -0.6 C 4.32 g/m*3 -0.6 C 0 km/h
993 17-01-2011 06:42:06 -1 C 4.2 g/m*3 -1 C 0 km/h
994 17-01-2011 06:54:03 -0.9 C 4.23 g/m*3 -0.9 C 0 km/h
995 17-01-2011 07:06:02 -0.7 C 4.29 g/m*3 -0.7 C 0 km/h
996 17-01-2011 07:18:02 0.2 C 4.62 g/m*3 0.2 C 0 km/h
997 17-01-2011 07:30:02 0 C 4.55 g/m*3 0 C 0 km/h
998 17-01-2011 07:42:02 -0.5 C 4.35 g/m*3 -0.5 C 0 km/h
999 17-01-2011 07:54:02 -1 C 4.2 g/m*3 -1 C 0 km/h
1000 17-01-2011 08:06:02 -1 C 4.2 g/m*3 -1 C 0 km/h
Sensor: Nr:Datum:Temp:Abs-Feuchte:Windchill:Wind:
Aussen-T/F 1001 17-01-2011 08:18:02 -1 C 4.2 g/m*3 -1 C 0 km/h
1002 17-01-2011 08:30:02 -1.1 C 4.17 g/m*3 -1.1 C 0 km/h
1003 17-01-2011 08:42:03 -0.2 C 4.49 g/m*3 -0.2 C 0 km/h
1004 17-01-2011 08:54:01 0 C 4.55 g/m*3 0 C 0 km/h
1005 17-01-2011 09:06:02 0.4 C 4.68 g/m*3 0.4 C 0 km/h
1006 17-01-2011 09:18:01 0.7 C 4.78 g/m*3 0.7 C 0 km/h
1007 17-01-2011 09:30:01 0.8 C 4.81 g/m*3 0.8 C 0 km/h
1008 17-01-2011 09:42:02 0.9 C 4.85 g/m*3 0.9 C 0 km/h
1009 17-01-2011 09:54:01 0.8 C 4.81 g/m*3 0.8 C 0 km/h
1010 17-01-2011 10:06:02 0.7 C 4.78 g/m*3 0.7 C 0 km/h
1011 17-01-2011 10:18:02 0.7 C 4.78 g/m*3 0.7 C 0 km/h
1012 17-01-2011 10:30:02 0.4 C 4.68 g/m*3 0.4 C 0 km/h
1013 17-01-2011 10:42:01 0.6 C 4.75 g/m*3 0.6 C 0 km/h
1014 17-01-2011 10:54:02 1 C 4.88 g/m*3 1 C 0 km/h
1015 17-01-2011 11:06:01 1 C 4.88 g/m*3 1 C 0 km/h
1016 17-01-2011 11:18:02 1 C 4.88 g/m*3 1 C 0 km/h
1017 17-01-2011 11:30:02 1.7 C 5.12 g/m*3 1.7 C 0 km/h
1018 17-01-2011 11:42:01 2.9 C 5.55 g/m*3 2.9 C 0 km/h
1019 17-01-2011 11:54:02 4.1 C 5.95 g/m*3 4.1 C 0 km/h
1020 17-01-2011 12:06:02 5 C 6.32 g/m*3 5 C 0 km/h
1021 17-01-2011 12:18:02 4.9 C 6.35 g/m*3 4.9 C 0 km/h
1022 17-01-2011 12:30:02 5.4 C 6.49 g/m*3 5.4 C 0 km/h
1023 17-01-2011 12:42:03 5.8 C 6.66 g/m*3 5.8 C 0 km/h
1024 17-01-2011 12:54:02 6 C 6.68 g/m*3 6 C 0 km/h
1025 17-01-2011 13:06:02 6.3 C 6.81 g/m*3 6.3 C 0 km/h
Sensor: Nr:Datum:Temp:Abs-Feuchte:Windchill:Wind:
Aussen-T/F 1026 17-01-2011 13:18:01 6.3 C 6.74 g/m*3 6.3 C 0 km/h
1027 17-01-2011 13:30:01 6 C 6.46 g/m*3 6 C 0 km/h
1028 17-01-2011 13:42:02 5.8 C 6.38 g/m*3 5.8 C 0 km/h
1029 17-01-2011 13:54:02 5.9 C 6.35 g/m*3 5.9 C 0 km/h
1030 17-01-2011 14:06:02 6 C 6.17 g/m*3 6 C 0 km/h
1031 17-01-2011 14:18:02 6.3 C 6.22 g/m*3 6.3 C 0 km/h
1032 17-01-2011 14:30:02 6.5 C 6.15 g/m*3 6.5 C 0 km/h
1033 17-01-2011 14:42:02 6.6 C 5.96 g/m*3 6.6 C 0 km/h
1034 17-01-2011 14:54:02 6.6 C 5.89 g/m*3 6.6 C 0 km/h
1035 17-01-2011 15:06:02 6.7 C 5.85 g/m*3 6.7 C 0 km/h
1036 17-01-2011 15:18:02 6.5 C 5.92 g/m*3 6.5 C 0 km/h
1037 17-01-2011 15:30:02 6.2 C 5.88 g/m*3 6.2 C 0 km/h
1038 17-01-2011 15:42:02 5.8 C 5.87 g/m*3 5.8 C 0 km/h
1039 17-01-2011 15:54:02 5.7 C 5.98 g/m*3 5.7 C 0 km/h
1040 17-01-2011 16:06:03 6.2 C 6.1 g/m*3 6.2 C 0 km/h
1041 17-01-2011 16:18:02 5.6 C 5.94 g/m*3 5.6 C 0 km/h
1042 17-01-2011 16:30:02 6.1 C 6.06 g/m*3 6.1 C 0 km/h
1043 17-01-2011 16:42:02 6.3 C 5.85 g/m*3 6.3 C 0 km/h
1044 17-01-2011 16:54:01 6.7 C 5.85 g/m*3 6.7 C 0 km/h
1045 17-01-2011 17:06:02 6.4 C 5.74 g/m*3 6.4 C 0 km/h
1046 17-01-2011 17:18:01 6.1 C 5.77 g/m*3 6.1 C 0 km/h
1047 17-01-2011 17:30:01 6.3 C 5.85 g/m*3 6.3 C 0 km/h
1048 17-01-2011 17:42:01 6.2 C 5.88 g/m*3 6.2 C 0 km/h
1049 17-01-2011 17:54:01 6 C 5.88 g/m*3 6 C 0 km/h
1050 17-01-2011 18:06:02 5.9 C 5.98 g/m*3 5.9 C 0 km/h
Sensor: Nr:Datum:Temp:Abs-Feuchte:Windchill:Wind:
Aussen-T/F 1051 17-01-2011 18:18:02 6 C 6.02 g/m*3 6 C 0 km/h
1052 17-01-2011 18:30:02 6 C 6.02 g/m*3 6 C 0 km/h
1053 17-01-2011 18:42:01 6 C 6.1 g/m*3 6 C 0 km/h
1054 17-01-2011 18:54:01 6 C 6.1 g/m*3 6 C 0 km/h
1055 17-01-2011 19:06:01 6 C 6.1 g/m*3 6 C 0 km/h
1056 17-01-2011 19:18:02 6.2 C 6.1 g/m*3 6.2 C 0 km/h
1057 17-01-2011 19:30:02 6.3 C 6.07 g/m*3 6.3 C 0 km/h
1058 17-01-2011 19:42:02 6.3 C 6.07 g/m*3 6.3 C 0 km/h
1059 17-01-2011 19:54:03 6.3 C 6.14 g/m*3 6.3 C 0 km/h
1060 17-01-2011 20:06:03 6.5 C 6.15 g/m*3 6.5 C 0 km/h
1061 17-01-2011 20:18:02 6.7 C 6.15 g/m*3 6.7 C 0 km/h
1062 17-01-2011 20:30:02 6.8 C 6.19 g/m*3 6.8 C 0 km/h
1063 17-01-2011 20:42:02 7.3 C 6.24 g/m*3 7.3 C 0 km/h
1064 17-01-2011 20:54:02 7.4 C 6.2 g/m*3 7.4 C 0 km/h
1065 17-01-2011 21:06:02 7.5 C 6.24 g/m*3 7.5 C 0 km/h
1066 17-01-2011 21:18:03 7.9 C 6.32 g/m*3 7.9 C 0 km/h
1067 17-01-2011 21:30:03 8.2 C 6.2 g/m*3 8.2 C 0 km/h
1068 17-01-2011 21:42:02 8.2 C 6.2 g/m*3 8.2 C 0 km/h
1069 17-01-2011 21:54:02 8.4 C 6.19 g/m*3 8.4 C 0 km/h
1070 17-01-2011 22:06:02 8.2 C 6.11 g/m*3 8.2 C 0 km/h
1071 17-01-2011 22:19:04 8.4 C 6.11 g/m*3 8.4 C 0 km/h
1072 17-01-2011 22:31:04 8.2 C 6.11 g/m*3 8.2 C 0 km/h
1073 17-01-2011 22:43:04 8.2 C 6.11 g/m*3 8.2 C 0 km/h
1074 17-01-2011 22:55:04 8.4 C 6.19 g/m*3 8.4 C 0 km/h
1075 17-01-2011 23:07:04 8.4 C 6.19 g/m*3 8.4 C 0 km/h
Sensor: Nr:Datum:Temp:Abs-Feuchte:Windchill:Wind:
Aussen-T/F 1076 17-01-2011 23:19:04 8.6 C 6.27 g/m*3 8.6 C 0 km/h
1077 17-01-2011 23:31:04 8.6 C 6.19 g/m*3 8.6 C 0 km/h
1078 17-01-2011 23:43:04 8.5 C 6.23 g/m*3 8.5 C 0 km/h
1079 17-01-2011 23:55:04 8.7 C 6.31 g/m*3 8.7 C 0 km/h
1080 18-01-2011 00:07:04 8.5 C 6.23 g/m*3 8.5 C 0 km/h
1081 18-01-2011 00:19:04 8.3 C 6.15 g/m*3 8.3 C 0 km/h
1082 18-01-2011 00:31:04 7.5 C 6 g/m*3 7.5 C 0 km/h
1083 18-01-2011 00:43:04 6.9 C 6.08 g/m*3 6.9 C 0 km/h
1084 18-01-2011 00:55:04 7 C 6.2 g/m*3 7 C 0 km/h
1085 18-01-2011 01:07:04 7.4 C 6.36 g/m*3 7.4 C 0 km/h
1086 18-01-2011 01:19:04 7.3 C 6.24 g/m*3 7.3 C 0 km/h
1087 18-01-2011 01:31:05 7.3 C 6.24 g/m*3 7.3 C 0 km/h
1088 18-01-2011 01:43:05 6.6 C 6.04 g/m*3 6.6 C 0 km/h
1089 18-01-2011 01:55:05 5.6 C 5.8 g/m*3 5.6 C 0 km/h
1090 18-01-2011 02:07:05 5.3 C 5.82 g/m*3 5.3 C 0 km/h
1091 18-01-2011 02:19:05 5.1 C 5.81 g/m*3 5.1 C 0 km/h
1092 18-01-2011 02:31:05 5 C 5.84 g/m*3 5 C 0 km/h
1093 18-01-2011 02:43:05 5.3 C 6.03 g/m*3 5.3 C 0 km/h
1094 18-01-2011 02:55:05 5.5 C 6.18 g/m*3 5.5 C 0 km/h
1095 18-01-2011 03:07:05 7 C 6.35 g/m*3 7 C 0 km/h
1096 18-01-2011 03:19:05 6.6 C 6.04 g/m*3 6.6 C 0 km/h
1097 18-01-2011 03:31:05 7.1 C 6.08 g/m*3 7.1 C 0 km/h
1098 18-01-2011 03:43:05 7.6 C 6.12 g/m*3 7.6 C 0 km/h
1099 18-01-2011 03:55:05 7.2 C 5.89 g/m*3 7.2 C 0 km/h
1100 18-01-2011 04:07:05 6.7 C 5.93 g/m*3 6.7 C 0 km/h
Sensor: Nr:Datum:Temp:Abs-Feuchte:Windchill:Wind:
Aussen-T/F 1101 18-01-2011 04:19:05 6.7 C 5.93 g/m*3 6.7 C 0 km/h
1102 18-01-2011 04:31:05 7.4 C 6.04 g/m*3 7.4 C 0 km/h
1103 18-01-2011 04:43:05 7.2 C 5.89 g/m*3 7.2 C 0 km/h
1104 18-01-2011 04:55:05 7.3 C 6 g/m*3 7.3 C 0 km/h
1105 18-01-2011 05:07:05 7.4 C 6.04 g/m*3 7.4 C 0 km/h
1106 18-01-2011 05:19:05 7.6 C 6.12 g/m*3 7.6 C 0 km/h
1107 18-01-2011 05:31:06 7.5 C 5.84 g/m*3 7.5 C 0 km/h
1108 18-01-2011 05:43:06 8 C 5.79 g/m*3 8 C 0 km/h
1109 18-01-2011 05:55:06 7.9 C 5.91 g/m*3 7.9 C 0 km/h
1110 18-01-2011 06:07:06 7.5 C 5.84 g/m*3 7.5 C 0 km/h
1111 18-01-2011 06:19:06 7.6 C 5.96 g/m*3 7.6 C 0 km/h
1112 18-01-2011 06:31:06 6.8 C 5.89 g/m*3 6.8 C 0 km/h
1113 18-01-2011 06:43:06 6.8 C 6.04 g/m*3 6.8 C 0 km/h
1114 18-01-2011 06:55:06 7.6 C 6.12 g/m*3 7.6 C 0 km/h
1115 18-01-2011 07:07:06 7 C 5.81 g/m*3 7 C 0 km/h
1116 18-01-2011 07:19:06 6.6 C 5.96 g/m*3 6.6 C 0 km/h
1117 18-01-2011 07:31:06 7.1 C 6.08 g/m*3 7.1 C 0 km/h
1118 18-01-2011 07:43:06 7.3 C 6.08 g/m*3 7.3 C 0 km/h
1119 18-01-2011 07:55:02 7.7 C 6.24 g/m*3 7.7 C 0 km/h
1120 18-01-2011 08:07:02 7.1 C 5.93 g/m*3 7.1 C 0 km/h
1121 18-01-2011 08:19:01 7.2 C 5.97 g/m*3 7.2 C 0 km/h
1122 18-01-2011 08:31:02 7 C 5.97 g/m*3 7 C 0 km/h
1123 18-01-2011 08:43:02 7.2 C 5.97 g/m*3 7.2 C 0 km/h
1124 18-01-2011 08:55:01 8 C 6.04 g/m*3 8 C 0 km/h
1125 18-01-2011 09:07:02 8.3 C 6.07 g/m*3 8.3 C 0 km/h
Sensor: Nr:Datum:Temp:Abs-Feuchte:Windchill:Wind:
Aussen-T/F 1126 18-01-2011 09:19:01 8.4 C 6.02 g/m*3 8.4 C 0 km/h
1127 18-01-2011 09:31:02 8.4 C 6.02 g/m*3 8.4 C 0 km/h
1128 18-01-2011 09:43:02 8.6 C 6.02 g/m*3 8.6 C 0 km/h
1129 18-01-2011 09:55:02 8.5 C 6.06 g/m*3 8.5 C 0 km/h
1130 18-01-2011 10:07:02 8.6 C 6.1 g/m*3 8.6 C 0 km/h
1131 18-01-2011 10:19:01 8.8 C 6.09 g/m*3 8.8 C 0 km/h
1132 18-01-2011 10:31:02 9 C 5.99 g/m*3 9 C 0 km/h
1133 18-01-2011 10:43:02 8.8 C 6.18 g/m*3 8.8 C 0 km/h
1134 18-01-2011 10:55:02 9 C 6.08 g/m*3 9 C 0 km/h
1135 18-01-2011 11:07:02 9.1 C 6.03 g/m*3 9.1 C 0 km/h
1136 18-01-2011 11:19:02 9.2 C 6.07 g/m*3 9.2 C 0 km/h
1137 18-01-2011 11:31:02 9.1 C 6.03 g/m*3 9.1 C 0 km/h
1138 18-01-2011 11:43:02 8.4 C 6.02 g/m*3 8.4 C 0 km/h
1139 18-01-2011 11:55:02 7.9 C 6.08 g/m*3 7.9 C 0 km/h
1140 18-01-2011 12:07:02 8.8 C 6.27 g/m*3 8.8 C 0 km/h
1141 18-01-2011 12:19:02 9.8 C 6.22 g/m*3 9.8 C 0 km/h
1142 18-01-2011 12:31:01 10 C 5.92 g/m*3 10 C 0 km/h
1143 18-01-2011 12:43:01 9.9 C 5.98 g/m*3 9.9 C 0 km/h
1144 18-01-2011 12:55:02 10 C 5.92 g/m*3 10 C 0 km/h
1145 18-01-2011 13:07:01 9.8 C 6.03 g/m*3 9.8 C 0 km/h
1146 18-01-2011 13:19:01 9.9 C 5.98 g/m*3 9.9 C 0 km/h
1147 18-01-2011 13:31:02 9.8 C 5.94 g/m*3 9.8 C 0 km/h
1148 18-01-2011 13:43:02 9.6 C 6.14 g/m*3 9.6 C 0 km/h
1149 18-01-2011 13:55:02 9.4 C 6.15 g/m*3 9.4 C 0 km/h
1150 18-01-2011 14:07:02 9.8 C 6.12 g/m*3 9.8 C 0 km/h
Sensor: Nr:Datum:Temp:Abs-Feuchte:Windchill:Wind:
Aussen-T/F 1151 18-01-2011 14:19:02 9.6 C 5.86 g/m*3 9.6 C 0 km/h
1152 18-01-2011 14:31:02 9.6 C 5.86 g/m*3 9.6 C 0 km/h
1153 18-01-2011 14:43:02 9.7 C 5.99 g/m*3 9.7 C 0 km/h
1154 18-01-2011 14:55:02 9.9 C 5.88 g/m*3 9.9 C 0 km/h
1155 18-01-2011 15:07:03 10.2 C 5.71 g/m*3 10.2 C 0 km/h
1156 18-01-2011 15:19:02 9.5 C 5.73 g/m*3 9.5 C 0 km/h
1157 18-01-2011 15:31:02 9.1 C 5.68 g/m*3 9.1 C 0 km/h
1158 18-01-2011 15:43:02 9.2 C 5.63 g/m*3 9.2 C 0 km/h
1159 18-01-2011 15:55:01 9.1 C 5.59 g/m*3 9.1 C 0 km/h
1160 18-01-2011 16:07:02 9.1 C 5.5 g/m*3 9.1 C 0 km/h
1161 18-01-2011 16:19:01 8.8 C 5.48 g/m*3 8.8 C 0 km/h
1162 18-01-2011 16:31:01 9.1 C 5.59 g/m*3 9.1 C 0 km/h
1163 18-01-2011 16:43:01 7.8 C 5.96 g/m*3 7.8 C 0 km/h
1164 18-01-2011 16:55:01 7.1 C 6.24 g/m*3 7.1 C 0 km/h
1165 18-01-2011 17:07:01 6.6 C 6.27 g/m*3 6.6 C 0 km/h
1166 18-01-2011 17:19:02 6.5 C 6.37 g/m*3 6.5 C 0 km/h
1167 18-01-2011 17:31:01 6.5 C 6.45 g/m*3 6.5 C 0 km/h
1168 18-01-2011 17:43:01 6.6 C 6.49 g/m*3 6.6 C 0 km/h
1169 18-01-2011 17:55:03 6.5 C 6.52 g/m*3 6.5 C 0 km/h
1170 18-01-2011 18:07:02 6.4 C 6.48 g/m*3 6.4 C 0 km/h
1171 18-01-2011 18:19:02 6.3 C 6.37 g/m*3 6.3 C 0 km/h
1172 18-01-2011 18:31:02 6.1 C 6.21 g/m*3 6.1 C 0 km/h
1173 18-01-2011 18:43:02 6.1 C 6.21 g/m*3 6.1 C 0 km/h
1174 18-01-2011 18:55:02 5.9 C 6.27 g/m*3 5.9 C 0 km/h
1175 18-01-2011 19:07:02 5.9 C 6.27 g/m*3 5.9 C 0 km/h
Sensor: Nr:Datum:Temp:Abs-Feuchte:Windchill:Wind:
Aussen-T/F 1176 18-01-2011 19:19:02 5.9 C 6.27 g/m*3 5.9 C 0 km/h
1177 18-01-2011 19:31:03 5.9 C 6.27 g/m*3 5.9 C 0 km/h
1178 18-01-2011 19:43:03 5.8 C 6.23 g/m*3 5.8 C 0 km/h
1179 18-01-2011 19:55:02 5.8 C 6.23 g/m*3 5.8 C 0 km/h
1180 18-01-2011 20:07:02 5.8 C 6.23 g/m*3 5.8 C 0 km/h
1181 18-01-2011 20:19:02 5.9 C 6.13 g/m*3 5.9 C 0 km/h
1182 18-01-2011 20:31:02 5.8 C 6.02 g/m*3 5.8 C 0 km/h
1183 18-01-2011 20:43:02 5.7 C 5.98 g/m*3 5.7 C 0 km/h
1184 18-01-2011 20:55:02 5.5 C 5.83 g/m*3 5.5 C 0 km/h
1185 18-01-2011 21:07:02 5.3 C 5.75 g/m*3 5.3 C 0 km/h
1186 18-01-2011 21:19:02 5.2 C 5.65 g/m*3 5.2 C 0 km/h
1187 18-01-2011 21:31:01 5.1 C 5.61 g/m*3 5.1 C 0 km/h
1188 18-01-2011 21:43:01 5 C 5.57 g/m*3 5 C 0 km/h
1189 18-01-2011 21:55:02 4.9 C 5.54 g/m*3 4.9 C 0 km/h
1190 18-01-2011 22:08:03 4.8 C 5.57 g/m*3 4.8 C 0 km/h
1191 18-01-2011 22:20:03 4.7 C 5.46 g/m*3 4.7 C 0 km/h
1192 18-01-2011 22:32:03 4.6 C 5.43 g/m*3 4.6 C 0 km/h
1193 18-01-2011 22:44:03 4.6 C 5.49 g/m*3 4.6 C 0 km/h
1194 18-01-2011 22:56:03 4.5 C 5.46 g/m*3 4.5 C 0 km/h
1195 18-01-2011 23:08:04 4.6 C 5.49 g/m*3 4.6 C 0 km/h
1196 18-01-2011 23:20:04 4.6 C 5.43 g/m*3 4.6 C 0 km/h
1197 18-01-2011 23:32:04 4.6 C 5.43 g/m*3 4.6 C 0 km/h
1198 18-01-2011 23:44:04 4.8 C 5.5 g/m*3 4.8 C 0 km/h
1199 18-01-2011 23:56:04 4.8 C 5.5 g/m*3 4.8 C 0 km/h
1200 19-01-2011 00:08:04 4.7 C 5.46 g/m*3 4.7 C 0 km/h
Sensor: Nr:Datum:Temp:Abs-Feuchte:Windchill:Wind:
Aussen-T/F 1201 19-01-2011 00:20:04 4.6 C 5.36 g/m*3 4.6 C 0 km/h
1202 19-01-2011 00:32:04 4.3 C 5.06 g/m*3 4.3 C 0 km/h
1203 19-01-2011 00:44:04 4.1 C 5.06 g/m*3 4.1 C 0 km/h
1204 19-01-2011 00:56:04 4.1 C 5.06 g/m*3 4.1 C 0 km/h
1205 19-01-2011 01:08:04 4 C 4.9 g/m*3 4 C 0 km/h
1206 19-01-2011 01:20:04 4 C 4.83 g/m*3 4 C 0 km/h
1207 19-01-2011 01:32:04 3.8 C 4.71 g/m*3 3.8 C 0 km/h
1208 19-01-2011 01:44:04 3.8 C 4.71 g/m*3 3.8 C 0 km/h
1209 19-01-2011 01:56:04 3.8 C 4.71 g/m*3 3.8 C 0 km/h
1210 19-01-2011 02:08:04 3.8 C 4.64 g/m*3 3.8 C 0 km/h
1211 19-01-2011 02:20:04 3.7 C 4.67 g/m*3 3.7 C 0 km/h
1212 19-01-2011 02:32:04 3.1 C 4.61 g/m*3 3.1 C 0 km/h
1213 19-01-2011 02:44:04 3.2 C 4.7 g/m*3 3.2 C 0 km/h
1214 19-01-2011 02:56:04 3.3 C 4.73 g/m*3 3.3 C 0 km/h
1215 19-01-2011 03:08:04 3.3 C 4.73 g/m*3 3.3 C 0 km/h
1216 19-01-2011 03:20:05 2.9 C 4.78 g/m*3 2.9 C 0 km/h
1217 19-01-2011 03:32:05 2.7 C 4.78 g/m*3 2.7 C 0 km/h
1218 19-01-2011 03:44:05 2.7 C 4.84 g/m*3 2.7 C 0 km/h
1219 19-01-2011 03:56:05 3 C 4.88 g/m*3 3 C 0 km/h
1220 19-01-2011 04:08:05 3 C 4.88 g/m*3 3 C 0 km/h
1221 19-01-2011 04:20:05 3 C 4.88 g/m*3 3 C 0 km/h
1222 19-01-2011 04:32:05 2.8 C 4.93 g/m*3 2.8 C 0 km/h
1223 19-01-2011 04:44:05 2.7 C 4.89 g/m*3 2.7 C 0 km/h
1224 19-01-2011 04:56:05 2.5 C 4.89 g/m*3 2.5 C 0 km/h
1225 19-01-2011 05:08:05 2.5 C 4.94 g/m*3 2.5 C 0 km/h
Sensor: Nr:Datum:Temp:Abs-Feuchte:Windchill:Wind:
Aussen-T/F 1226 19-01-2011 05:20:05 2.5 C 4.94 g/m*3 2.5 C 0 km/h
1227 19-01-2011 05:32:05 2.5 C 4.94 g/m*3 2.5 C 0 km/h
1228 19-01-2011 05:44:05 2.6 C 5.03 g/m*3 2.6 C 0 km/h
1229 19-01-2011 05:56:05 2.7 C 5.07 g/m*3 2.7 C 0 km/h
1230 19-01-2011 06:08:05 2.6 C 4.98 g/m*3 2.6 C 0 km/h
1231 19-01-2011 06:20:05 2.6 C 5.03 g/m*3 2.6 C 0 km/h
1232 19-01-2011 06:32:05 2.6 C 4.98 g/m*3 2.6 C 0 km/h
1233 19-01-2011 06:44:05 2.6 C 4.98 g/m*3 2.6 C 0 km/h
1234 19-01-2011 06:56:05 2.8 C 4.99 g/m*3 2.8 C 0 km/h
1235 19-01-2011 07:08:05 2.8 C 4.87 g/m*3 2.8 C 0 km/h
1236 19-01-2011 07:20:06 2.9 C 4.84 g/m*3 2.9 C 0 km/h
1237 19-01-2011 07:32:06 2.8 C 4.81 g/m*3 2.8 C 0 km/h
1238 19-01-2011 07:44:06 2.9 C 4.9 g/m*3 2.9 C 0 km/h
1239 19-01-2011 07:56:02 2.6 C 4.8 g/m*3 2.6 C 0 km/h
1240 19-01-2011 08:08:02 2.4 C 4.8 g/m*3 2.4 C 0 km/h
1241 19-01-2011 08:20:02 2.3 C 4.82 g/m*3 2.3 C 0 km/h
1242 19-01-2011 08:32:02 2.3 C 4.88 g/m*3 2.3 C 0 km/h
1243 19-01-2011 08:44:02 2.3 C 4.88 g/m*3 2.3 C 0 km/h
1244 19-01-2011 08:56:02 2.7 C 4.95 g/m*3 2.7 C 0 km/h
1245 19-01-2011 09:08:02 2.4 C 4.74 g/m*3 2.4 C 0 km/h
1246 19-01-2011 09:20:03 2.5 C 4.77 g/m*3 2.5 C 0 km/h
1247 19-01-2011 09:32:02 2.7 C 4.84 g/m*3 2.7 C 0 km/h
1248 19-01-2011 09:44:02 2.9 C 4.9 g/m*3 2.9 C 0 km/h
1249 19-01-2011 09:56:02 3 C 4.82 g/m*3 3 C 0 km/h
1250 19-01-2011 10:08:02 3.1 C 4.85 g/m*3 3.1 C 0 km/h
Sensor: Nr:Datum:Temp:Abs-Feuchte:Windchill:Wind:
Aussen-T/F 1251 19-01-2011 10:20:02 2.1 C 4.53 g/m*3 2.1 C 0 km/h
1252 19-01-2011 10:32:03 2 C 4.56 g/m*3 2 C 0 km/h
1253 19-01-2011 10:44:03 2.1 C 4.59 g/m*3 2.1 C 0 km/h
1254 19-01-2011 10:56:02 2.7 C 4.89 g/m*3 2.7 C 0 km/h
1255 19-01-2011 11:08:01 3.1 C 4.85 g/m*3 3.1 C 0 km/h
1256 19-01-2011 11:20:02 3.5 C 4.86 g/m*3 3.5 C 0 km/h
1257 19-01-2011 11:32:02 4 C 4.96 g/m*3 4 C 0 km/h
1258 19-01-2011 11:44:02 3.9 C 4.8 g/m*3 3.9 C 0 km/h
1259 19-01-2011 11:56:02 3.7 C 4.74 g/m*3 3.7 C 0 km/h
1260 19-01-2011 12:08:03 4.1 C 4.67 g/m*3 4.1 C 0 km/h
1261 19-01-2011 12:20:02 4.3 C 4.67 g/m*3 4.3 C 0 km/h
1262 19-01-2011 12:32:02 4.4 C 4.7 g/m*3 4.4 C 0 km/h
1263 19-01-2011 12:44:03 4.6 C 4.57 g/m*3 4.6 C 0 km/h
1264 19-01-2011 12:56:01 4.8 C 4.56 g/m*3 4.8 C 0 km/h
1265 19-01-2011 13:08:02 4.8 C 4.43 g/m*3 4.8 C 0 km/h
1266 19-01-2011 13:20:01 4.7 C 4.4 g/m*3 4.7 C 0 km/h
1267 19-01-2011 13:32:01 5 C 4.28 g/m*3 5 C 0 km/h
1268 19-01-2011 13:44:01 5.2 C 4.34 g/m*3 5.2 C 0 km/h
1269 19-01-2011 13:56:01 5 C 4.28 g/m*3 5 C 0 km/h
1270 19-01-2011 14:08:02 5.3 C 4.3 g/m*3 5.3 C 0 km/h
1271 19-01-2011 14:20:02 5.2 C 4.27 g/m*3 5.2 C 0 km/h
1272 19-01-2011 14:32:01 5.4 C 4.19 g/m*3 5.4 C 0 km/h
1273 19-01-2011 14:44:01 5.5 C 4.21 g/m*3 5.5 C 0 km/h
1274 19-01-2011 14:56:01 5.4 C 4.26 g/m*3 5.4 C 0 km/h
1275 19-01-2011 15:08:01 5.1 C 4.17 g/m*3 5.1 C 0 km/h
Sensor: Nr:Datum:Temp:Abs-Feuchte:Windchill:Wind:
Aussen-T/F 1276 19-01-2011 15:20:02 4.9 C 4.12 g/m*3 4.9 C 0 km/h
1277 19-01-2011 15:32:01 4.9 C 4.12 g/m*3 4.9 C 0 km/h
1278 19-01-2011 15:44:01 4.9 C 4.12 g/m*3 4.9 C 0 km/h
1279 19-01-2011 15:56:02 4.9 C 4.12 g/m*3 4.9 C 0 km/h
1280 19-01-2011 16:08:01 4.9 C 4.12 g/m*3 4.9 C 0 km/h
1281 19-01-2011 16:20:01 4.9 C 4.12 g/m*3 4.9 C 0 km/h
1282 19-01-2011 16:32:02 3.8 C 4.52 g/m*3 3.8 C 0 km/h
1283 19-01-2011 16:44:02 3.8 C 4.52 g/m*3 3.8 C 0 km/h
1284 19-01-2011 16:56:02 3.5 C 4.55 g/m*3 3.5 C 0 km/h
1285 19-01-2011 17:08:02 3.7 C 4.55 g/m*3 3.7 C 0 km/h
1286 19-01-2011 17:20:02 3.5 C 4.49 g/m*3 3.5 C 0 km/h
1287 19-01-2011 17:32:02 3.5 C 4.49 g/m*3 3.5 C 0 km/h
1288 19-01-2011 17:44:02 3.1 C 4.49 g/m*3 3.1 C 0 km/h
1289 19-01-2011 17:56:01 2.9 C 4.67 g/m*3 2.9 C 0 km/h
1290 19-01-2011 18:08:02 2.8 C 4.69 g/m*3 2.8 C 0 km/h
1291 19-01-2011 18:20:01 2.9 C 4.78 g/m*3 2.9 C 0 km/h
1292 19-01-2011 18:32:02 2.6 C 4.69 g/m*3 2.6 C 0 km/h
1293 19-01-2011 18:44:03 3.2 C 4.82 g/m*3 3.2 C 0 km/h
1294 19-01-2011 18:56:02 3.2 C 4.52 g/m*3 3.2 C 0 km/h
1295 19-01-2011 19:08:02 3.4 C 4.46 g/m*3 3.4 C 0 km/h
1296 19-01-2011 19:20:01 3.5 C 4.43 g/m*3 3.5 C 0 km/h
1297 19-01-2011 19:32:02 3.5 C 4.37 g/m*3 3.5 C 0 km/h
1298 19-01-2011 19:44:02 3 C 4.46 g/m*3 3 C 0 km/h
1299 19-01-2011 19:56:01 2.6 C 4.57 g/m*3 2.6 C 0 km/h
1300 19-01-2011 20:08:02 2.3 C 4.59 g/m*3 2.3 C 0 km/h
Sensor: Nr:Datum:Temp:Abs-Feuchte:Windchill:Wind:
Aussen-T/F 1301 19-01-2011 20:20:02 2.2 C 4.62 g/m*3 2.2 C 0 km/h
1302 19-01-2011 20:32:02 2.4 C 4.74 g/m*3 2.4 C 0 km/h
1303 19-01-2011 20:44:02 2.4 C 4.74 g/m*3 2.4 C 0 km/h
1304 19-01-2011 20:56:02 2.5 C 4.77 g/m*3 2.5 C 0 km/h
1305 19-01-2011 21:08:02 2.6 C 4.86 g/m*3 2.6 C 0 km/h
1306 19-01-2011 21:20:02 2.5 C 4.77 g/m*3 2.5 C 0 km/h
1307 19-01-2011 21:32:02 2.4 C 4.74 g/m*3 2.4 C 0 km/h
1308 19-01-2011 21:44:02 2.5 C 4.77 g/m*3 2.5 C 0 km/h
1309 19-01-2011 21:56:02 2.5 C 4.77 g/m*3 2.5 C 0 km/h
1310 19-01-2011 22:08:02 2.4 C 4.74 g/m*3 2.4 C 0 km/h
1311 19-01-2011 22:21:03 2.4 C 4.74 g/m*3 2.4 C 0 km/h
1312 19-01-2011 22:33:03 2.4 C 4.74 g/m*3 2.4 C 0 km/h
1313 19-01-2011 22:45:03 2.4 C 4.74 g/m*3 2.4 C 0 km/h
1314 19-01-2011 22:57:03 2.4 C 4.68 g/m*3 2.4 C 0 km/h
1315 19-01-2011 23:09:03 2.4 C 4.68 g/m*3 2.4 C 0 km/h
1316 19-01-2011 23:21:03 2.4 C 4.74 g/m*3 2.4 C 0 km/h
1317 19-01-2011 23:33:03 2.4 C 4.74 g/m*3 2.4 C 0 km/h
1318 19-01-2011 23:45:03 2.1 C 4.64 g/m*3 2.1 C 0 km/h
1319 19-01-2011 23:57:03 2.1 C 4.64 g/m*3 2.1 C 0 km/h
1320 20-01-2011 00:09:03 1.8 C 4.71 g/m*3 1.8 C 0 km/h
1321 20-01-2011 00:21:04 1.7 C 4.68 g/m*3 1.7 C 0 km/h
1322 20-01-2011 00:33:04 1.7 C 4.68 g/m*3 1.7 C 0 km/h
1323 20-01-2011 00:45:04 1.7 C 4.79 g/m*3 1.7 C 0 km/h
1324 20-01-2011 00:57:04 1.7 C 4.79 g/m*3 1.7 C 0 km/h
1325 20-01-2011 01:09:04 1.8 C 4.82 g/m*3 1.8 C 0 km/h
Sensor: Nr:Datum:Temp:Abs-Feuchte:Windchill:Wind:
Aussen-T/F 1326 20-01-2011 01:21:04 1.8 C 4.88 g/m*3 1.8 C 0 km/h
1327 20-01-2011 01:33:04 1.8 C 4.88 g/m*3 1.8 C 0 km/h
1328 20-01-2011 01:45:04 1.9 C 4.91 g/m*3 1.9 C 0 km/h
1329 20-01-2011 01:57:04 1.8 C 4.88 g/m*3 1.8 C 0 km/h
1330 20-01-2011 02:09:04 1.8 C 4.88 g/m*3 1.8 C 0 km/h
1331 20-01-2011 02:21:04 0.9 C 4.59 g/m*3 0.9 C 0 km/h
1332 20-01-2011 02:33:04 1 C 4.62 g/m*3 1 C 0 km/h
1333 20-01-2011 02:45:04 1.1 C 4.7 g/m*3 1.1 C 0 km/h
1334 20-01-2011 02:57:04 1.3 C 4.77 g/m*3 1.3 C 0 km/h
1335 20-01-2011 03:09:04 1.4 C 4.8 g/m*3 1.4 C 0 km/h
1336 20-01-2011 03:21:04 1.3 C 4.82 g/m*3 1.3 C 0 km/h
1337 20-01-2011 03:33:04 1.4 C 4.85 g/m*3 1.4 C 0 km/h
1338 20-01-2011 03:45:04 1.4 C 4.85 g/m*3 1.4 C 0 km/h
1339 20-01-2011 03:57:04 1.2 C 4.79 g/m*3 1.2 C 0 km/h
1340 20-01-2011 04:09:04 1.2 C 4.79 g/m*3 1.2 C 0 km/h
1341 20-01-2011 04:21:05 1.3 C 4.82 g/m*3 1.3 C 0 km/h
1342 20-01-2011 04:33:05 1.3 C 4.82 g/m*3 1.3 C 0 km/h
1343 20-01-2011 04:45:05 1 C 4.72 g/m*3 1 C 0 km/h
1344 20-01-2011 04:57:05 1 C 4.72 g/m*3 1 C 0 km/h
1345 20-01-2011 05:09:05 1.3 C 4.82 g/m*3 1.3 C 0 km/h
1346 20-01-2011 05:21:05 1.2 C 4.79 g/m*3 1.2 C 0 km/h
1347 20-01-2011 05:33:05 1.4 C 4.91 g/m*3 1.4 C 0 km/h
1348 20-01-2011 05:45:05 1.4 C 4.91 g/m*3 1.4 C 0 km/h
1349 20-01-2011 05:57:05 1.5 C 4.94 g/m*3 1.5 C 0 km/h
1350 20-01-2011 06:09:05 1.4 C 4.91 g/m*3 1.4 C 0 km/h
Sensor: Nr:Datum:Temp:Abs-Feuchte:Windchill:Wind:
Aussen-T/F 1351 20-01-2011 06:21:05 1.4 C 4.91 g/m*3 1.4 C 0 km/h
1352 20-01-2011 06:33:05 1.2 C 4.84 g/m*3 1.2 C 0 km/h
1353 20-01-2011 06:45:05 1.2 C 4.79 g/m*3 1.2 C 0 km/h
1354 20-01-2011 06:57:05 1.2 C 4.79 g/m*3 1.2 C 0 km/h
1355 20-01-2011 07:09:02 1.1 C 4.76 g/m*3 1.1 C 0 km/h
1356 20-01-2011 07:21:02 1 C 4.72 g/m*3 1 C 0 km/h
1357 20-01-2011 07:33:02 1 C 4.72 g/m*3 1 C 0 km/h
1358 20-01-2011 07:45:02 1 C 4.72 g/m*3 1 C 0 km/h
1359 20-01-2011 07:57:03 1 C 4.72 g/m*3 1 C 0 km/h
1360 20-01-2011 08:09:02 1.2 C 4.79 g/m*3 1.2 C 0 km/h
1361 20-01-2011 08:21:02 1.2 C 4.79 g/m*3 1.2 C 0 km/h
1362 20-01-2011 08:33:03 1.2 C 4.74 g/m*3 1.2 C 0 km/h
1363 20-01-2011 08:45:02 1.2 C 4.74 g/m*3 1.2 C 0 km/h
1364 20-01-2011 08:57:02 1.2 C 4.68 g/m*3 1.2 C 0 km/h
1365 20-01-2011 09:09:02 1.2 C 4.68 g/m*3 1.2 C 0 km/h
1366 20-01-2011 09:21:02 1.3 C 4.72 g/m*3 1.3 C 0 km/h
1367 20-01-2011 09:33:02 1.4 C 4.69 g/m*3 1.4 C 0 km/h
1368 20-01-2011 09:45:02 1.6 C 4.7 g/m*3 1.6 C 0 km/h
1369 20-01-2011 09:57:02 1.7 C 4.68 g/m*3 1.7 C 0 km/h
1370 20-01-2011 10:09:02 1.8 C 4.66 g/m*3 1.8 C 0 km/h
1371 20-01-2011 10:21:02 1.8 C 4.66 g/m*3 1.8 C 0 km/h
1372 20-01-2011 10:33:02 2.1 C 4.64 g/m*3 2.1 C 0 km/h
1373 20-01-2011 10:45:02 2.1 C 4.53 g/m*3 2.1 C 0 km/h
1374 20-01-2011 10:57:02 2.3 C 4.54 g/m*3 2.3 C 0 km/h
1375 20-01-2011 11:09:02 2.3 C 4.54 g/m*3 2.3 C 0 km/h
Sensor: Nr:Datum:Temp:Abs-Feuchte:Windchill:Wind:
Aussen-T/F 1376 20-01-2011 11:21:02 2.7 C 4.54 g/m*3 2.7 C 0 km/h
1377 20-01-2011 11:33:02 2.8 C 4.52 g/m*3 2.8 C 0 km/h
1378 20-01-2011 11:45:01 2.6 C 4.4 g/m*3 2.6 C 0 km/h
1379 20-01-2011 11:57:01 3.2 C 4.64 g/m*3 3.2 C 0 km/h
1380 20-01-2011 12:09:01 3.1 C 4.49 g/m*3 3.1 C 0 km/h
1381 20-01-2011 12:21:02 3.2 C 4.46 g/m*3 3.2 C 0 km/h
1382 20-01-2011 12:33:01 3.2 C 4.4 g/m*3 3.2 C 0 km/h
1383 20-01-2011 12:45:01 3.4 C 4.46 g/m*3 3.4 C 0 km/h
1384 20-01-2011 12:57:01 3.4 C 4.4 g/m*3 3.4 C 0 km/h
1385 20-01-2011 13:09:01 3.5 C 4.37 g/m*3 3.5 C 0 km/h
1386 20-01-2011 13:21:02 3.8 C 4.39 g/m*3 3.8 C 0 km/h
1387 20-01-2011 13:33:01 4 C 4.39 g/m*3 4 C 0 km/h
1388 20-01-2011 13:45:02 4 C 4.32 g/m*3 4 C 0 km/h
1389 20-01-2011 13:57:02 4.1 C 4.29 g/m*3 4.1 C 0 km/h
1390 20-01-2011 14:09:02 4.1 C 4.29 g/m*3 4.1 C 0 km/h
1391 20-01-2011 14:21:02 4.1 C 4.29 g/m*3 4.1 C 0 km/h
1392 20-01-2011 14:33:01 4.1 C 4.29 g/m*3 4.1 C 0 km/h
1393 20-01-2011 14:45:02 4.1 C 4.29 g/m*3 4.1 C 0 km/h
1394 20-01-2011 14:57:03 4.1 C 4.29 g/m*3 4.1 C 0 km/h
1395 20-01-2011 15:09:01 4.1 C 4.29 g/m*3 4.1 C 0 km/h
1396 20-01-2011 15:21:02 4.1 C 4.29 g/m*3 4.1 C 0 km/h
1397 20-01-2011 15:33:02 2.7 C 3.96 g/m*3 2.7 C 0 km/h
1398 20-01-2011 15:45:02 2.7 C 3.96 g/m*3 2.7 C 0 km/h
1399 20-01-2011 15:57:02 2.7 C 4.02 g/m*3 2.7 C 0 km/h
1400 20-01-2011 16:09:02 2.7 C 4.02 g/m*3 2.7 C 0 km/h
Sensor: Nr:Datum:Temp:Abs-Feuchte:Windchill:Wind:
Aussen-T/F 1401 20-01-2011 16:21:02 2.6 C 3.99 g/m*3 2.6 C 0 km/h
1402 20-01-2011 16:33:02 2.5 C 3.97 g/m*3 2.5 C 0 km/h
1403 20-01-2011 16:45:01 2.4 C 4 g/m*3 2.4 C 0 km/h
1404 20-01-2011 16:57:01 2.2 C 3.94 g/m*3 2.2 C 0 km/h
1405 20-01-2011 17:09:02 2.2 C 3.94 g/m*3 2.2 C 0 km/h
1406 20-01-2011 17:21:01 2 C 3.95 g/m*3 2 C 0 km/h
1407 20-01-2011 17:33:01 2 C 3.95 g/m*3 2 C 0 km/h
1408 20-01-2011 17:45:02 1.9 C 3.97 g/m*3 1.9 C 0 km/h
1409 20-01-2011 17:57:02 1.8 C 3.95 g/m*3 1.8 C 0 km/h
1410 20-01-2011 18:09:02 1.7 C 3.97 g/m*3 1.7 C 0 km/h
1411 20-01-2011 18:21:02 1.7 C 3.97 g/m*3 1.7 C 0 km/h
1412 20-01-2011 18:33:02 1.7 C 3.97 g/m*3 1.7 C 0 km/h
1413 20-01-2011 18:45:02 1.7 C 3.97 g/m*3 1.7 C 0 km/h
1414 20-01-2011 18:57:02 1.7 C 3.97 g/m*3 1.7 C 0 km/h
1415 20-01-2011 19:09:02 1.7 C 3.97 g/m*3 1.7 C 0 km/h
1416 20-01-2011 19:21:02 1.4 C 3.95 g/m*3 1.4 C 0 km/h
1417 20-01-2011 19:33:03 1.2 C 3.89 g/m*3 1.2 C 0 km/h
1418 20-01-2011 19:45:02 1.1 C 3.81 g/m*3 1.1 C 0 km/h
1419 20-01-2011 19:57:02 1.1 C 3.81 g/m*3 1.1 C 0 km/h
1420 20-01-2011 20:09:01 0.8 C 3.79 g/m*3 0.8 C 0 km/h
1421 20-01-2011 20:21:02 0.8 C 3.79 g/m*3 0.8 C 0 km/h
1422 20-01-2011 20:33:01 1.1 C 3.71 g/m*3 1.1 C 0 km/h
1423 20-01-2011 20:45:02 1.1 C 3.71 g/m*3 1.1 C 0 km/h
1424 20-01-2011 20:57:02 0.7 C 3.61 g/m*3 0.7 C 0 km/h
1425 20-01-2011 21:09:01 0 C 3.49 g/m*3 0 C 0 km/h
Sensor: Nr:Datum:Temp:Abs-Feuchte:Windchill:Wind:
Aussen-T/F 1426 20-01-2011 21:21:01 0 C 3.63 g/m*3 0 C 0 km/h
1427 20-01-2011 21:33:01 -0.2 C 3.63 g/m*3 -0.2 C 0 km/h
1428 20-01-2011 21:45:02 -0.4 C 3.58 g/m*3 -0.4 C 0 km/h
1429 20-01-2011 21:57:03 -0.2 C 3.63 g/m*3 -0.2 C 0 km/h
1430 20-01-2011 22:10:04 -0.4 C 3.53 g/m*3 -0.4 C 0 km/h
1431 20-01-2011 22:22:04 -0.2 C 3.54 g/m*3 -0.2 C 0 km/h
1432 20-01-2011 22:34:04 -0.4 C 3.49 g/m*3 -0.4 C 0 km/h
1433 20-01-2011 22:46:04 -0.2 C 3.58 g/m*3 -0.2 C 0 km/h
1434 20-01-2011 22:58:04 -0.2 C 3.58 g/m*3 -0.2 C 0 km/h
1435 20-01-2011 23:10:04 -0.4 C 3.58 g/m*3 -0.4 C 0 km/h
1436 20-01-2011 23:22:04 0 C 3.68 g/m*3 0 C 0 km/h
1437 20-01-2011 23:34:04 0.2 C 3.68 g/m*3 0.2 C 0 km/h
1438 20-01-2011 23:46:04 0.3 C 3.66 g/m*3 0.3 C 0 km/h
1439 20-01-2011 23:58:04 0.3 C 3.61 g/m*3 0.3 C 0 km/h
1440 21-01-2011 00:10:04 0.4 C 3.29 g/m*3 0.4 C 0 km/h
1441 21-01-2011 00:22:04 0.4 C 3.14 g/m*3 0.4 C 0 km/h
1442 21-01-2011 00:34:04 0.4 C 3.14 g/m*3 0.4 C 0 km/h
1443 21-01-2011 00:46:04 0.3 C 3.07 g/m*3 0.3 C 0 km/h
1444 21-01-2011 00:58:04 0.2 C 3.05 g/m*3 0.2 C 0 km/h
1445 21-01-2011 01:10:04 0.1 C 3.17 g/m*3 0.1 C 0 km/h
1446 21-01-2011 01:22:04 0.1 C 3.12 g/m*3 0.1 C 0 km/h
1447 21-01-2011 01:34:04 0.2 C 3.05 g/m*3 0.2 C 0 km/h
1448 21-01-2011 01:46:05 0.2 C 3.05 g/m*3 0.2 C 0 km/h
1449 21-01-2011 01:58:05 0.3 C 3.02 g/m*3 0.3 C 0 km/h
1450 21-01-2011 02:10:05 0.2 C 3.09 g/m*3 0.2 C 0 km/h
Sensor: Nr:Datum:Temp:Abs-Feuchte:Windchill:Wind:
Aussen-T/F 1451 21-01-2011 02:22:05 0.2 C 3.19 g/m*3 0.2 C 0 km/h
1452 21-01-2011 02:34:05 0.1 C 3.27 g/m*3 0.1 C 0 km/h
1453 21-01-2011 02:46:05 0 C 3.05 g/m*3 0 C 0 km/h
1454 21-01-2011 02:58:05 -0.3 C 2.94 g/m*3 -0.3 C 0 km/h
1455 21-01-2011 03:10:05 -0.3 C 2.8 g/m*3 -0.3 C 0 km/h
1456 21-01-2011 03:22:05 -0.4 C 2.83 g/m*3 -0.4 C 0 km/h
1457 21-01-2011 03:34:05 -0.5 C 2.81 g/m*3 -0.5 C 0 km/h
1458 21-01-2011 03:46:05 -0.4 C 2.78 g/m*3 -0.4 C 0 km/h
1459 21-01-2011 03:58:05 -0.2 C 2.77 g/m*3 -0.2 C 0 km/h
1460 21-01-2011 04:10:05 -0.2 C 2.72 g/m*3 -0.2 C 0 km/h
1461 21-01-2011 04:22:05 -0.4 C 2.69 g/m*3 -0.4 C 0 km/h
1462 21-01-2011 04:34:05 -0.5 C 2.62 g/m*3 -0.5 C 0 km/h
1463 21-01-2011 04:46:05 -0.4 C 2.64 g/m*3 -0.4 C 0 km/h
1464 21-01-2011 04:58:05 -0.4 C 2.69 g/m*3 -0.4 C 0 km/h
1465 21-01-2011 05:10:05 -0.5 C 2.71 g/m*3 -0.5 C 0 km/h
1466 21-01-2011 05:22:05 -0.5 C 2.76 g/m*3 -0.5 C 0 km/h
1467 21-01-2011 05:34:05 -0.3 C 2.75 g/m*3 -0.3 C 0 km/h
1468 21-01-2011 05:46:06 -0.4 C 2.78 g/m*3 -0.4 C 0 km/h
1469 21-01-2011 05:58:06 -0.6 C 2.74 g/m*3 -0.6 C 0 km/h
1470 21-01-2011 06:10:06 -0.7 C 2.77 g/m*3 -0.7 C 0 km/h
1471 21-01-2011 06:22:06 -1 C 2.8 g/m*3 -1 C 0 km/h
1472 21-01-2011 06:34:06 -0.9 C 2.87 g/m*3 -0.9 C 0 km/h
1473 21-01-2011 06:46:06 -0.6 C 2.84 g/m*3 -0.6 C 0 km/h
1474 21-01-2011 06:58:06 -0.5 C 2.76 g/m*3 -0.5 C 0 km/h
1475 21-01-2011 07:10:06 -0.5 C 2.76 g/m*3 -0.5 C 0 km/h
Sensor: Nr:Datum:Temp:Abs-Feuchte:Windchill:Wind:
Aussen-T/F 1476 21-01-2011 07:22:04 -0.6 C 2.7 g/m*3 -0.6 C 0 km/h
1477 21-01-2011 07:34:04 -0.6 C 2.65 g/m*3 -0.6 C 0 km/h
1478 21-01-2011 07:46:02 -0.7 C 2.63 g/m*3 -0.7 C 0 km/h
1479 21-01-2011 07:58:02 -0.6 C 2.6 g/m*3 -0.6 C 0 km/h
1480 21-01-2011 08:10:01 -0.6 C 2.65 g/m*3 -0.6 C 0 km/h
1481 21-01-2011 08:22:02 -0.4 C 2.73 g/m*3 -0.4 C 0 km/h
1482 21-01-2011 08:34:02 -0.5 C 2.67 g/m*3 -0.5 C 0 km/h
1483 21-01-2011 08:46:02 -0.5 C 2.71 g/m*3 -0.5 C 0 km/h
1484 21-01-2011 08:58:02 -0.5 C 2.67 g/m*3 -0.5 C 0 km/h
1485 21-01-2011 09:10:02 -0.4 C 2.69 g/m*3 -0.4 C 0 km/h
1486 21-01-2011 09:22:02 -0.2 C 2.77 g/m*3 -0.2 C 0 km/h
1487 21-01-2011 09:34:02 -0.1 C 2.79 g/m*3 -0.1 C 0 km/h
1488 21-01-2011 09:46:01 0 C 2.81 g/m*3 0 C 0 km/h
1489 21-01-2011 09:58:01 0 C 2.71 g/m*3 0 C 0 km/h
1490 21-01-2011 10:10:02 0.1 C 2.73 g/m*3 0.1 C 0 km/h
1491 21-01-2011 10:22:02 0.3 C 2.77 g/m*3 0.3 C 0 km/h
1492 21-01-2011 10:34:02 0.1 C 2.73 g/m*3 0.1 C 0 km/h
1493 21-01-2011 10:46:02 0.1 C 2.73 g/m*3 0.1 C 0 km/h
1494 21-01-2011 10:58:02 0.1 C 2.73 g/m*3 0.1 C 0 km/h
1495 21-01-2011 11:10:01 0.2 C 2.8 g/m*3 0.2 C 0 km/h
1496 21-01-2011 11:22:02 -0.1 C 2.79 g/m*3 -0.1 C 0 km/h
1497 21-01-2011 11:34:01 -0.2 C 2.77 g/m*3 -0.2 C 0 km/h
1498 21-01-2011 11:46:02 0.1 C 2.93 g/m*3 0.1 C 0 km/h
1499 21-01-2011 11:58:03 0.1 C 2.83 g/m*3 0.1 C 0 km/h
1500 21-01-2011 12:10:02 0.4 C 2.94 g/m*3 0.4 C 0 km/h
Sensor: Nr:Datum:Temp:Abs-Feuchte:Windchill:Wind:
Aussen-T/F 1501 21-01-2011 12:22:02 0.1 C 2.83 g/m*3 0.1 C 0 km/h
1502 21-01-2011 12:34:02 -0.2 C 2.82 g/m*3 -0.2 C 0 km/h
1503 21-01-2011 12:46:01 0.5 C 2.96 g/m*3 0.5 C 0 km/h
1504 21-01-2011 12:58:01 0.8 C 2.97 g/m*3 0.8 C 0 km/h
1505 21-01-2011 13:10:02 0.8 C 3.02 g/m*3 0.8 C 0 km/h
1506 21-01-2011 13:22:01 1.4 C 2.93 g/m*3 1.4 C 0 km/h
1507 21-01-2011 13:34:02 1.5 C 2.95 g/m*3 1.5 C 0 km/h
1508 21-01-2011 13:46:01 1 C 2.85 g/m*3 1 C 0 km/h
1509 21-01-2011 13:58:01 0.6 C 2.98 g/m*3 0.6 C 0 km/h
1510 21-01-2011 14:10:02 0.7 C 3 g/m*3 0.7 C 0 km/h
1511 21-01-2011 14:22:01 0.6 C 2.98 g/m*3 0.6 C 0 km/h
1512 21-01-2011 14:34:02 1.6 C 3.03 g/m*3 1.6 C 0 km/h
1513 21-01-2011 14:46:01 1.7 C 2.99 g/m*3 1.7 C 0 km/h
1514 21-01-2011 14:58:01 1.8 C 3.01 g/m*3 1.8 C 0 km/h
1515 21-01-2011 15:10:02 1.5 C 2.95 g/m*3 1.5 C 0 km/h
1516 21-01-2011 15:22:02 1.3 C 3.02 g/m*3 1.3 C 0 km/h
1517 21-01-2011 15:34:01 1 C 3.01 g/m*3 1 C 0 km/h
1518 21-01-2011 15:46:02 0.6 C 3.03 g/m*3 0.6 C 0 km/h
1519 21-01-2011 15:58:02 0.7 C 3.05 g/m*3 0.7 C 0 km/h
1520 21-01-2011 16:10:01 0.8 C 3.12 g/m*3 0.8 C 0 km/h
1521 21-01-2011 16:22:02 0.5 C 3.11 g/m*3 0.5 C 0 km/h
1522 21-01-2011 16:34:01 0 C 3.1 g/m*3 0 C 0 km/h
1523 21-01-2011 16:46:02 -0.2 C 3.11 g/m*3 -0.2 C 0 km/h
1524 21-01-2011 16:58:02 -0.2 C 3.2 g/m*3 -0.2 C 0 km/h
1525 21-01-2011 17:10:02 -0.4 C 3.2 g/m*3 -0.4 C 0 km/h
Sensor: Nr:Datum:Temp:Abs-Feuchte:Windchill:Wind:
Aussen-T/F 1526 21-01-2011 17:22:02 -0.3 C 3.27 g/m*3 -0.3 C 0 km/h
1527 21-01-2011 17:34:02 -0.3 C 3.27 g/m*3 -0.3 C 0 km/h
1528 21-01-2011 17:46:02 -0.1 C 3.27 g/m*3 -0.1 C 0 km/h
1529 21-01-2011 17:58:02 0 C 3.25 g/m*3 0 C 0 km/h
1530 21-01-2011 18:10:02 0 C 3.29 g/m*3 0 C 0 km/h
1531 21-01-2011 18:22:02 -0.1 C 3.27 g/m*3 -0.1 C 0 km/h
1532 21-01-2011 18:34:02 -0.2 C 3.25 g/m*3 -0.2 C 0 km/h
1533 21-01-2011 18:46:02 -0.2 C 3.25 g/m*3 -0.2 C 0 km/h
1534 21-01-2011 18:58:02 -0.2 C 3.25 g/m*3 -0.2 C 0 km/h
1535 21-01-2011 19:10:02 -0.2 C 3.25 g/m*3 -0.2 C 0 km/h
1536 21-01-2011 19:22:02 -0.4 C 3.25 g/m*3 -0.4 C 0 km/h
1537 21-01-2011 19:34:03 -0.4 C 3.25 g/m*3 -0.4 C 0 km/h
1538 21-01-2011 19:46:01 -0.5 C 3.23 g/m*3 -0.5 C 0 km/h
1539 21-01-2011 19:58:01 -0.5 C 3.28 g/m*3 -0.5 C 0 km/h
1540 21-01-2011 20:10:02 -0.5 C 3.28 g/m*3 -0.5 C 0 km/h
1541 21-01-2011 20:22:01 -0.4 C 3.39 g/m*3 -0.4 C 0 km/h
1542 21-01-2011 20:34:01 -0.4 C 3.44 g/m*3 -0.4 C 0 km/h
1543 21-01-2011 20:46:01 -0.4 C 3.44 g/m*3 -0.4 C 0 km/h
1544 21-01-2011 20:58:01 -0.4 C 3.44 g/m*3 -0.4 C 0 km/h
1545 21-01-2011 21:10:02 -0.7 C 3.55 g/m*3 -0.7 C 0 km/h
1546 21-01-2011 21:22:01 -0.7 C 3.6 g/m*3 -0.7 C 0 km/h
1547 21-01-2011 21:34:02 -0.8 C 3.62 g/m*3 -0.8 C 0 km/h
1548 21-01-2011 21:46:01 -0.9 C 3.6 g/m*3 -0.9 C 0 km/h
1549 21-01-2011 21:58:01 -0.8 C 3.67 g/m*3 -0.8 C 0 km/h
1550 21-01-2011 22:10:02 -0.7 C 3.69 g/m*3 -0.7 C 0 km/h
Sensor: Nr:Datum:Temp:Abs-Feuchte:Windchill:Wind:
Aussen-T/F 1551 21-01-2011 22:22:02 -0.6 C 3.72 g/m*3 -0.6 C 0 km/h
1552 21-01-2011 22:34:01 -0.6 C 3.72 g/m*3 -0.6 C 0 km/h
1553 21-01-2011 22:46:02 -0.5 C 3.7 g/m*3 -0.5 C 0 km/h
1554 21-01-2011 22:58:02 -0.5 C 3.7 g/m*3 -0.5 C 0 km/h
1555 21-01-2011 23:10:01 -0.5 C 3.74 g/m*3 -0.5 C 0 km/h
1556 21-01-2011 23:22:02 -0.5 C 3.79 g/m*3 -0.5 C 0 km/h
1557 21-01-2011 23:34:01 -0.5 C 3.79 g/m*3 -0.5 C 0 km/h
1558 21-01-2011 23:47:04 -0.5 C 3.79 g/m*3 -0.5 C 0 km/h
1559 21-01-2011 23:59:04 -0.4 C 3.86 g/m*3 -0.4 C 0 km/h
1560 22-01-2011 00:11:04 -0.4 C 3.86 g/m*3 -0.4 C 0 km/h
1561 22-01-2011 00:23:04 -0.4 C 3.86 g/m*3 -0.4 C 0 km/h
1562 22-01-2011 00:35:04 -0.4 C 3.86 g/m*3 -0.4 C 0 km/h
1563 22-01-2011 00:47:04 -0.4 C 3.86 g/m*3 -0.4 C 0 km/h
1564 22-01-2011 00:59:04 -0.4 C 3.86 g/m*3 -0.4 C 0 km/h
1565 22-01-2011 01:11:04 -0.4 C 3.86 g/m*3 -0.4 C 0 km/h
1566 22-01-2011 01:23:05 -0.4 C 3.86 g/m*3 -0.4 C 0 km/h
1567 22-01-2011 01:35:05 -0.4 C 3.86 g/m*3 -0.4 C 0 km/h
1568 22-01-2011 01:47:05 -0.4 C 3.86 g/m*3 -0.4 C 0 km/h
1569 22-01-2011 01:59:05 -0.4 C 3.86 g/m*3 -0.4 C 0 km/h
1570 22-01-2011 02:11:05 -0.4 C 3.86 g/m*3 -0.4 C 0 km/h
1571 22-01-2011 02:23:05 -0.4 C 3.86 g/m*3 -0.4 C 0 km/h
1572 22-01-2011 02:35:05 -0.4 C 3.86 g/m*3 -0.4 C 0 km/h
1573 22-01-2011 02:47:05 -0.4 C 3.86 g/m*3 -0.4 C 0 km/h
1574 22-01-2011 02:59:05 -0.4 C 3.86 g/m*3 -0.4 C 0 km/h
1575 22-01-2011 03:11:05 -0.4 C 3.86 g/m*3 -0.4 C 0 km/h
Sensor: Nr:Datum:Temp:Abs-Feuchte:Windchill:Wind:
Aussen-T/F 1576 22-01-2011 03:23:05 -0.4 C 3.86 g/m*3 -0.4 C 0 km/h
1577 22-01-2011 03:35:05 -0.4 C 3.86 g/m*3 -0.4 C 0 km/h
1578 22-01-2011 03:47:05 -0.4 C 3.86 g/m*3 -0.4 C 0 km/h
1579 22-01-2011 03:59:05 -0.4 C 3.86 g/m*3 -0.4 C 0 km/h
1580 22-01-2011 04:11:05 -0.4 C 3.86 g/m*3 -0.4 C 0 km/h
1581 22-01-2011 04:23:05 -0.4 C 3.86 g/m*3 -0.4 C 0 km/h
1582 22-01-2011 04:35:05 -0.4 C 3.86 g/m*3 -0.4 C 0 km/h
1583 22-01-2011 04:47:05 -0.4 C 3.86 g/m*3 -0.4 C 0 km/h
1584 22-01-2011 04:59:05 -0.4 C 3.86 g/m*3 -0.4 C 0 km/h
1585 22-01-2011 05:11:05 -0.4 C 3.86 g/m*3 -0.4 C 0 km/h
1586 22-01-2011 05:23:05 -0.4 C 3.86 g/m*3 -0.4 C 0 km/h
1587 22-01-2011 05:35:06 -0.4 C 3.86 g/m*3 -0.4 C 0 km/h
1588 22-01-2011 05:47:06 -0.4 C 3.86 g/m*3 -0.4 C 0 km/h
1589 22-01-2011 05:59:06 -0.4 C 3.86 g/m*3 -0.4 C 0 km/h
1590 22-01-2011 06:11:06 -0.4 C 3.86 g/m*3 -0.4 C 0 km/h
1591 22-01-2011 06:23:06 -0.4 C 3.86 g/m*3 -0.4 C 0 km/h
1592 22-01-2011 06:35:06 -0.4 C 3.86 g/m*3 -0.4 C 0 km/h
1593 22-01-2011 06:47:06 -0.4 C 3.86 g/m*3 -0.4 C 0 km/h
1594 22-01-2011 06:59:06 -0.4 C 3.86 g/m*3 -0.4 C 0 km/h
1595 22-01-2011 07:11:06 -0.4 C 3.86 g/m*3 -0.4 C 0 km/h
1596 22-01-2011 07:23:06 -0.4 C 3.86 g/m*3 -0.4 C 0 km/h
1597 22-01-2011 07:35:06 -0.4 C 3.86 g/m*3 -0.4 C 0 km/h
1598 22-01-2011 07:47:06 -0.4 C 3.86 g/m*3 -0.4 C 0 km/h
1599 22-01-2011 07:59:06 -0.4 C 3.86 g/m*3 -0.4 C 0 km/h
1600 22-01-2011 08:11:06 -0.4 C 3.86 g/m*3 -0.4 C 0 km/h
Sensor: Nr:Datum:Temp:Abs-Feuchte:Windchill:Wind:
Aussen-T/F 1601 22-01-2011 08:23:06 -0.4 C 3.86 g/m*3 -0.4 C 0 km/h
1602 22-01-2011 08:35:06 -0.4 C 3.86 g/m*3 -0.4 C 0 km/h
1603 22-01-2011 08:47:06 -0.4 C 3.86 g/m*3 -0.4 C 0 km/h
1604 22-01-2011 08:59:06 0 C 3.97 g/m*3 0 C 0 km/h
1605 22-01-2011 09:11:06 0 C 3.97 g/m*3 0 C 0 km/h
1606 22-01-2011 09:23:06 0 C 3.97 g/m*3 0 C 0 km/h
1607 22-01-2011 09:35:07 0 C 3.97 g/m*3 0 C 0 km/h
1608 22-01-2011 09:47:07 0 C 3.97 g/m*3 0 C 0 km/h
1609 22-01-2011 09:59:07 0 C 3.97 g/m*3 0 C 0 km/h
1610 22-01-2011 10:11:07 0 C 3.97 g/m*3 0 C 0 km/h
1611 22-01-2011 10:23:03 0.9 C 3.92 g/m*3 0.9 C 0 km/h
1612 22-01-2011 10:35:04 1.2 C 3.84 g/m*3 1.2 C 0 km/h
1613 22-01-2011 10:47:02 1.1 C 3.76 g/m*3 1.1 C 0 km/h
1614 22-01-2011 10:59:02 1.4 C 3.79 g/m*3 1.4 C 0 km/h
1615 22-01-2011 11:11:02 1.4 C 3.79 g/m*3 1.4 C 0 km/h
1616 22-01-2011 11:23:02 1.3 C 3.71 g/m*3 1.3 C 0 km/h
1617 22-01-2011 11:35:02 1.5 C 3.76 g/m*3 1.5 C 0 km/h
1618 22-01-2011 11:47:02 1.4 C 3.68 g/m*3 1.4 C 0 km/h
1619 22-01-2011 11:59:03 1.4 C 3.68 g/m*3 1.4 C 0 km/h
1620 22-01-2011 12:11:01 1.4 C 3.68 g/m*3 1.4 C 0 km/h
1621 22-01-2011 12:23:01 1.7 C 3.7 g/m*3 1.7 C 0 km/h
1622 22-01-2011 12:35:02 1.7 C 3.7 g/m*3 1.7 C 0 km/h
1623 22-01-2011 12:47:02 1.8 C 3.67 g/m*3 1.8 C 0 km/h
1624 22-01-2011 12:59:02 2 C 3.67 g/m*3 2 C 0 km/h
1625 22-01-2011 13:11:02 1.9 C 3.59 g/m*3 1.9 C 0 km/h
Sensor: Nr:Datum:Temp:Abs-Feuchte:Windchill:Wind:
Aussen-T/F 1626 22-01-2011 13:23:02 1.9 C 3.59 g/m*3 1.9 C 0 km/h
1627 22-01-2011 13:35:02 1.4 C 3.73 g/m*3 1.4 C 0 km/h
1628 22-01-2011 13:47:02 1.7 C 3.87 g/m*3 1.7 C 0 km/h
1629 22-01-2011 13:59:02 1.7 C 3.87 g/m*3 1.7 C 0 km/h
1630 22-01-2011 14:11:03 1.8 C 3.95 g/m*3 1.8 C 0 km/h
1631 22-01-2011 14:23:02 1.8 C 4 g/m*3 1.8 C 0 km/h
1632 22-01-2011 14:35:02 2 C 4.06 g/m*3 2 C 0 km/h
1633 22-01-2011 14:47:01 2 C 4 g/m*3 2 C 0 km/h
1634 22-01-2011 14:59:01 1.6 C 3.89 g/m*3 1.6 C 0 km/h
1635 22-01-2011 15:11:02 1.4 C 3.84 g/m*3 1.4 C 0 km/h
1636 22-01-2011 15:23:01 1.6 C 3.95 g/m*3 1.6 C 0 km/h
1637 22-01-2011 15:35:02 1.6 C 3.95 g/m*3 1.6 C 0 km/h
1638 22-01-2011 15:47:01 1.6 C 3.95 g/m*3 1.6 C 0 km/h
1639 22-01-2011 15:59:01 1.6 C 3.89 g/m*3 1.6 C 0 km/h
1640 22-01-2011 16:11:02 1.5 C 3.87 g/m*3 1.5 C 0 km/h
1641 22-01-2011 16:23:01 1.4 C 3.89 g/m*3 1.4 C 0 km/h
1642 22-01-2011 16:35:02 1.3 C 3.87 g/m*3 1.3 C 0 km/h
1643 22-01-2011 16:47:02 1.3 C 3.87 g/m*3 1.3 C 0 km/h
1644 22-01-2011 16:59:02 0.9 C 3.81 g/m*3 0.9 C 0 km/h
1645 22-01-2011 17:11:02 0.8 C 3.84 g/m*3 0.8 C 0 km/h
1646 22-01-2011 17:23:02 0.7 C 3.92 g/m*3 0.7 C 0 km/h
1647 22-01-2011 17:35:02 0.7 C 3.92 g/m*3 0.7 C 0 km/h
1648 22-01-2011 17:47:01 0.7 C 3.92 g/m*3 0.7 C 0 km/h
1649 22-01-2011 17:59:01 0.7 C 3.92 g/m*3 0.7 C 0 km/h
1650 22-01-2011 18:11:01 0.7 C 3.92 g/m*3 0.7 C 0 km/h
Sensor: Nr:Datum:Temp:Abs-Feuchte:Windchill:Wind:
Aussen-T/F 1651 22-01-2011 18:23:01 0.7 C 3.92 g/m*3 0.7 C 0 km/h
1652 22-01-2011 18:35:02 0.7 C 3.92 g/m*3 0.7 C 0 km/h
1653 22-01-2011 18:47:02 0.7 C 3.92 g/m*3 0.7 C 0 km/h
1654 22-01-2011 18:59:02 0 C 3.97 g/m*3 0 C 0 km/h
1655 22-01-2011 19:11:02 0.2 C 4.03 g/m*3 0.2 C 0 km/h
1656 22-01-2011 19:23:02 0.3 C 4.06 g/m*3 0.3 C 0 km/h
1657 22-01-2011 19:35:02 0.4 C 4.08 g/m*3 0.4 C 0 km/h
1658 22-01-2011 19:47:02 0.4 C 4.03 g/m*3 0.4 C 0 km/h
1659 22-01-2011 19:59:03 0.4 C 4.03 g/m*3 0.4 C 0 km/h
1660 22-01-2011 20:11:02 0.4 C 3.98 g/m*3 0.4 C 0 km/h
1661 22-01-2011 20:23:02 0.4 C 3.98 g/m*3 0.4 C 0 km/h
1662 22-01-2011 20:35:02 0.4 C 4.03 g/m*3 0.4 C 0 km/h
1663 22-01-2011 20:47:02 0.4 C 4.03 g/m*3 0.4 C 0 km/h
1664 22-01-2011 20:59:02 0.3 C 4.01 g/m*3 0.3 C 0 km/h
1665 22-01-2011 21:11:02 0.4 C 4.03 g/m*3 0.4 C 0 km/h
1666 22-01-2011 21:23:01 0.4 C 4.03 g/m*3 0.4 C 0 km/h
1667 22-01-2011 21:35:02 0.3 C 4.01 g/m*3 0.3 C 0 km/h
1668 22-01-2011 21:47:02 0.3 C 4.06 g/m*3 0.3 C 0 km/h
1669 22-01-2011 21:59:02 0.2 C 4.03 g/m*3 0.2 C 0 km/h
1670 22-01-2011 22:11:02 0.3 C 4.06 g/m*3 0.3 C 0 km/h
1671 22-01-2011 22:24:03 0.3 C 4.06 g/m*3 0.3 C 0 km/h
1672 22-01-2011 22:36:03 0.2 C 4.03 g/m*3 0.2 C 0 km/h
1673 22-01-2011 22:48:03 0.2 C 4.03 g/m*3 0.2 C 0 km/h
1674 22-01-2011 23:00:03 0 C 3.97 g/m*3 0 C 0 km/h
1675 22-01-2011 23:12:03 0 C 3.97 g/m*3 0 C 0 km/h
Sensor: Nr:Datum:Temp:Abs-Feuchte:Windchill:Wind:
Aussen-T/F 1676 22-01-2011 23:24:03 0 C 3.97 g/m*3 0 C 0 km/h
1677 22-01-2011 23:36:03 0 C 3.97 g/m*3 0 C 0 km/h
1678 22-01-2011 23:48:03 0 C 3.97 g/m*3 0 C 0 km/h

Legende:
   Min
   Max


Maximal/Minimal-Werte vom 09.01.2011 - 22.01.2011

Sensor Min Max Avg
Temp
(Aussen-T/F)
-1.1 °C
17-01-2011  08:30:02
13.4 °C
13-01-2011  14:38:01
5.01 °C
Abs-Feuchte
(Aussen-T/F)
2.6 g/m*3
21-01-2011  07:58:02
8.57 g/m*3
13-01-2011  16:50:01
5.35 g/m*3
Windchill
(Aussen-T/F)
-1.1 C
17-01-2011  08:30:02
13.4 C
13-01-2011  14:38:01
5 C

Die Daten stammen von einer Davis Vantage Pro 2 Wetter-Station und werden unter Linux mit der Software wview2wettercgi und aufbereitet. Alle Angaben erfolgen ohne Gewähr für ihre Vollständigkeit oder Richtigkeit.
Kontakt: Rainer Krienke krienke@uni-koblenz.de . Meine Webseiten an der Uni Koblenz oder privat.
Version: $Revision: 0.78 $